Summary for KC4WPS2

West Of Town, West Plains, MO 65775
Join the PWSweather.com Network
View data in metric units
Latest Conditions
Updated 2:34:00 PM CDT Friday, Aug 22, 2014
Data Currently Today's Max Today's Min Today's Average
Temperature 88.8°F31.6°C 88.8°F31.6°C 69.7°F20.9°C 76.3°F24.6°C
Dew Point 66.0°F18.9°C 68.3°F20.2°C 62.6°F17.0°C 65.3°F18.5°C
Winds 3.0 mph SSW4.8 kmh SSW 6.0 mph SW9.7 kmh SW CalmCalm 0.6 mph1.0 kmh
Wind Gusts 6.0 mph9.7 kmh 9.0 mph14.5 kmh -- 2.2 mph3.5 kmh
Humidity 47% 81% 46% 70%
Pressure 29.04 in983.4 mb 29.10 in985.4 mb 29.04 in983.4 mb 29.08 in984.8 mb
Precipitation 0.00 in0.0 mm - - 0.00 in0.0 mm
Trends
 
Station Profile
West Of TownWest Plains, MO 65775

Lat: 36.746, Lon: -91.896
Elevation: 1068
Station Type: Lacrosse 2308

http://www.rogerg.net/weather

Detailed Summary for Fri, Aug 22, 2014
Hour (CDT) Temperature Dew Point Humidity Winds Wind Gusts Pressure Precip Precip Rate Daily Precip Total
02:34 PM 88.8°F31.6°C 66.0°F18.9°C 47% 3.0 mph SSW4.8 kmh SSW 6.0 mph9.7 kmh 29.04 in983.4 mb 0.00 in0.0 mm 0.00 in/hr0.0 mm/hr 0.00 in0.0 mm
02:32 PM 88.8°F31.6°C 65.4°F18.6°C 46% 3.0 mph SSW4.8 kmh SSW 6.0 mph9.7 kmh 29.04 in983.4 mb 0.00 in0.0 mm 0.00 in/hr0.0 mm/hr 0.00 in0.0 mm
02:30 PM 88.8°F31.6°C 66.0°F18.9°C 47% 4.0 mph SSW6.4 kmh SSW 4.0 mph6.4 kmh 29.04 in983.4 mb 0.00 in0.0 mm 0.00 in/hr0.0 mm/hr 0.00 in0.0 mm
02:28 PM 88.8°F31.6°C 66.6°F19.2°C 48% 2.0 mph SSW3.2 kmh SSW 5.0 mph8.0 kmh 29.04 in983.4 mb 0.00 in0.0 mm 0.00 in/hr0.0 mm/hr 0.00 in0.0 mm
02:26 PM 88.8°F31.6°C 67.8°F19.9°C 50% 1.0 mph SSW1.6 kmh SSW 5.0 mph8.0 kmh 29.04 in983.4 mb 0.00 in0.0 mm 0.00 in/hr0.0 mm/hr 0.00 in0.0 mm
02:24 PM 88.6°F31.4°C 68.2°F20.1°C 51% 2.0 mph SSW3.2 kmh SSW 5.0 mph8.0 kmh 29.04 in983.4 mb 0.00 in0.0 mm 0.00 in/hr0.0 mm/hr 0.00 in0.0 mm
02:22 PM 88.5°F31.4°C 67.5°F19.7°C 50% 1.0 mph SSW1.6 kmh SSW 5.0 mph8.0 kmh 29.05 in983.7 mb 0.00 in0.0 mm 0.00 in/hr0.0 mm/hr 0.00 in0.0 mm
02:20 PM 88.4°F31.3°C 66.8°F19.3°C 49% 1.0 mph SSW1.6 kmh SSW 5.0 mph8.0 kmh 29.05 in983.7 mb 0.00 in0.0 mm 0.00 in/hr0.0 mm/hr 0.00 in0.0 mm
02:18 PM 88.4°F31.3°C 66.8°F19.3°C 49% 3.0 mph SSW4.8 kmh SSW 5.0 mph8.0 kmh 29.05 in983.7 mb 0.00 in0.0 mm 0.00 in/hr0.0 mm/hr 0.00 in0.0 mm
02:16 PM 88.4°F31.3°C 67.4°F19.7°C 50% Calm Calm 5.0 mph8.0 kmh 29.05 in983.7 mb 0.00 in0.0 mm 0.00 in/hr0.0 mm/hr 0.00 in0.0 mm
02:14 PM 88.4°F31.3°C 66.8°F19.3°C 49% 1.0 mph SSW1.6 kmh SSW 5.0 mph8.0 kmh 29.05 in983.7 mb 0.00 in0.0 mm 0.00 in/hr0.0 mm/hr 0.00 in0.0 mm
02:12 PM 88.3°F31.3°C 67.3°F19.6°C 50% 1.0 mph SSW1.6 kmh SSW 5.0 mph8.0 kmh 29.05 in983.7 mb 0.00 in0.0 mm 0.00 in/hr0.0 mm/hr 0.00 in0.0 mm
02:10 PM 88.3°F31.3°C 67.3°F19.6°C 50% 1.0 mph SSW1.6 kmh SSW 5.0 mph8.0 kmh 29.05 in983.7 mb 0.00 in0.0 mm 0.00 in/hr0.0 mm/hr 0.00 in0.0 mm
02:08 PM 88.2°F31.2°C 67.2°F19.6°C 50% 2.0 mph SSW3.2 kmh SSW 5.0 mph8.0 kmh 29.05 in983.7 mb 0.00 in0.0 mm 0.00 in/hr0.0 mm/hr 0.00 in0.0 mm
02:06 PM 88.2°F31.2°C 67.2°F19.6°C 50% 3.0 mph SSW4.8 kmh SSW 5.0 mph8.0 kmh 29.05 in983.7 mb 0.00 in0.0 mm 0.00 in/hr0.0 mm/hr 0.00 in0.0 mm
02:04 PM 88.2°F31.2°C 67.2°F19.6°C 50% 1.0 mph SSW1.6 kmh SSW 5.0 mph8.0 kmh 29.06 in984.1 mb 0.00 in0.0 mm 0.00 in/hr0.0 mm/hr 0.00 in0.0 mm
02:02 PM 88.2°F31.2°C 67.2°F19.6°C 50% 2.0 mph SSW3.2 kmh SSW 4.0 mph6.4 kmh 29.05 in983.7 mb 0.00 in0.0 mm 0.00 in/hr0.0 mm/hr 0.00 in0.0 mm
02:00 PM 88.1°F31.2°C 68.3°F20.2°C 52% 1.0 mph SSW1.6 kmh SSW 1.0 mph1.6 kmh 29.06 in984.1 mb 0.00 in0.0 mm 0.00 in/hr0.0 mm/hr 0.00 in0.0 mm
01:58 PM 87.9°F31.1°C 67.5°F19.7°C 51% 1.0 mph SSW1.6 kmh SSW 5.0 mph8.0 kmh 29.06 in984.1 mb 0.00 in0.0 mm 0.00 in/hr0.0 mm/hr 0.00 in0.0 mm
01:56 PM 87.8°F31.0°C 66.9°F19.4°C 50% 1.0 mph SSW1.6 kmh SSW 5.0 mph8.0 kmh 29.06 in984.1 mb 0.00 in0.0 mm 0.00 in/hr0.0 mm/hr 0.00 in0.0 mm
01:54 PM 87.8°F31.0°C 66.9°F19.4°C 50% 1.0 mph SSW1.6 kmh SSW 5.0 mph8.0 kmh 29.06 in984.1 mb 0.00 in0.0 mm 0.00 in/hr0.0 mm/hr 0.00 in0.0 mm
01:52 PM 87.7°F30.9°C 67.9°F19.9°C 52% 2.0 mph SSW3.2 kmh SSW 5.0 mph8.0 kmh 29.06 in984.1 mb 0.00 in0.0 mm 0.00 in/hr0.0 mm/hr 0.00 in0.0 mm
01:50 PM 87.6°F30.9°C 67.3°F19.6°C 51% Calm Calm 5.0 mph8.0 kmh 29.06 in984.1 mb 0.00 in0.0 mm 0.00 in/hr0.0 mm/hr 0.00 in0.0 mm
01:48 PM 87.6°F30.9°C 67.3°F19.6°C 51% 1.0 mph SSW1.6 kmh SSW 5.0 mph8.0 kmh 29.06 in984.1 mb 0.00 in0.0 mm 0.00 in/hr0.0 mm/hr 0.00 in0.0 mm
01:46 PM 87.5°F30.8°C 67.7°F19.8°C 52% 2.0 mph SSW3.2 kmh SSW 5.0 mph8.0 kmh 29.06 in984.1 mb 0.00 in0.0 mm 0.00 in/hr0.0 mm/hr 0.00 in0.0 mm
01:44 PM 87.4°F30.8°C 68.2°F20.1°C 53% 1.0 mph SSW1.6 kmh SSW 5.0 mph8.0 kmh 29.06 in984.1 mb 0.00 in0.0 mm 0.00 in/hr0.0 mm/hr 0.00 in0.0 mm
01:42 PM 87.4°F30.8°C 67.6°F19.8°C 52% Calm Calm 5.0 mph8.0 kmh 29.06 in984.1 mb 0.00 in0.0 mm 0.00 in/hr0.0 mm/hr 0.00 in0.0 mm
01:40 PM 87.3°F30.7°C 67.0°F19.4°C 51% 3.0 mph SSW4.8 kmh SSW 5.0 mph8.0 kmh 29.06 in984.1 mb 0.00 in0.0 mm 0.00 in/hr0.0 mm/hr 0.00 in0.0 mm
01:38 PM 87.2°F30.7°C 68.0°F20.0°C 53% Calm Calm 2.0 mph3.2 kmh 29.07 in984.4 mb 0.00 in0.0 mm 0.00 in/hr0.0 mm/hr 0.00 in0.0 mm
01:36 PM 87.2°F30.7°C 68.0°F20.0°C 53% Calm Calm 2.0 mph3.2 kmh 29.06 in984.1 mb 0.00 in0.0 mm 0.00 in/hr0.0 mm/hr 0.00 in0.0 mm
01:34 PM 87.1°F30.6°C 67.4°F19.7°C 52% 1.0 mph SSW1.6 kmh SSW 2.0 mph3.2 kmh 29.06 in984.1 mb 0.00 in0.0 mm 0.00 in/hr0.0 mm/hr 0.00 in0.0 mm
01:32 PM 86.9°F30.5°C 67.7°F19.8°C 53% 1.0 mph SSW1.6 kmh SSW 1.0 mph1.6 kmh 29.07 in984.4 mb 0.00 in0.0 mm 0.00 in/hr0.0 mm/hr 0.00 in0.0 mm
01:30 PM 86.8°F30.4°C 67.6°F19.8°C 53% Calm Calm -- 29.06 in984.1 mb 0.00 in0.0 mm 0.00 in/hr0.0 mm/hr 0.00 in0.0 mm
01:28 PM 86.8°F30.4°C 66.5°F19.2°C 51% Calm Calm 5.0 mph8.0 kmh 29.06 in984.1 mb 0.00 in0.0 mm 0.00 in/hr0.0 mm/hr 0.00 in0.0 mm
01:26 PM 86.7°F30.4°C 66.4°F19.1°C 51% Calm Calm 5.0 mph8.0 kmh 29.07 in984.4 mb 0.00 in0.0 mm 0.00 in/hr0.0 mm/hr 0.00 in0.0 mm
01:24 PM 86.7°F30.4°C 67.0°F19.4°C 52% Calm Calm 5.0 mph8.0 kmh 29.07 in984.4 mb 0.00 in0.0 mm 0.00 in/hr0.0 mm/hr 0.00 in0.0 mm
01:22 PM 86.6°F30.3°C 67.5°F19.7°C 53% Calm Calm 5.0 mph8.0 kmh 29.07 in984.4 mb 0.00 in0.0 mm 0.00 in/hr0.0 mm/hr 0.00 in0.0 mm
01:20 PM 86.5°F30.3°C 67.9°F19.9°C 54% Calm Calm 5.0 mph8.0 kmh 29.07 in984.4 mb 0.00 in0.0 mm 0.00 in/hr0.0 mm/hr 0.00 in0.0 mm
01:18 PM 86.3°F30.2°C 67.7°F19.8°C 54% Calm Calm 5.0 mph8.0 kmh 29.07 in984.4 mb 0.00 in0.0 mm 0.00 in/hr0.0 mm/hr 0.00 in0.0 mm
01:16 PM 86.2°F30.1°C 67.1°F19.5°C 53% Calm Calm 5.0 mph8.0 kmh 29.07 in984.4 mb 0.00 in0.0 mm 0.00 in/hr0.0 mm/hr 0.00 in0.0 mm
01:14 PM 86.2°F30.1°C 67.1°F19.5°C 53% 2.0 mph SSW3.2 kmh SSW 5.0 mph8.0 kmh 29.07 in984.4 mb 0.00 in0.0 mm 0.00 in/hr0.0 mm/hr 0.00 in0.0 mm
01:12 PM 86.1°F30.1°C 67.0°F19.4°C 53% 2.0 mph SSW3.2 kmh SSW 5.0 mph8.0 kmh 29.07 in984.4 mb 0.00 in0.0 mm 0.00 in/hr0.0 mm/hr 0.00 in0.0 mm
01:10 PM 86.1°F30.1°C 67.0°F19.4°C 53% 3.0 mph SSW4.8 kmh SSW 5.0 mph8.0 kmh 29.07 in984.4 mb 0.00 in0.0 mm 0.00 in/hr0.0 mm/hr 0.00 in0.0 mm
01:08 PM 86.0°F30.0°C 67.4°F19.7°C 54% 1.0 mph SSW1.6 kmh SSW 5.0 mph8.0 kmh 29.07 in984.4 mb 0.00 in0.0 mm 0.00 in/hr0.0 mm/hr 0.00 in0.0 mm
01:06 PM 85.9°F29.9°C 66.8°F19.3°C 53% 1.0 mph SSW1.6 kmh SSW 5.0 mph8.0 kmh 29.07 in984.4 mb 0.00 in0.0 mm 0.00 in/hr0.0 mm/hr 0.00 in0.0 mm
01:04 PM 85.8°F29.9°C 67.3°F19.6°C 54% 1.0 mph SSW1.6 kmh SSW 5.0 mph8.0 kmh 29.08 in984.8 mb 0.00 in0.0 mm 0.00 in/hr0.0 mm/hr 0.00 in0.0 mm
01:02 PM 85.7°F29.8°C 66.6°F19.2°C 53% 3.0 mph SSW4.8 kmh SSW 5.0 mph8.0 kmh 29.08 in984.8 mb 0.00 in0.0 mm 0.00 in/hr0.0 mm/hr 0.00 in0.0 mm
01:00 PM 85.7°F29.8°C 66.6°F19.2°C 53% 4.0 mph SSW6.4 kmh SSW 5.0 mph8.0 kmh 29.08 in984.8 mb 0.00 in0.0 mm 0.00 in/hr0.0 mm/hr 0.00 in0.0 mm
12:58 PM 85.6°F29.8°C 67.6°F19.8°C 55% 3.0 mph SSW4.8 kmh SSW 7.0 mph11.3 kmh 29.08 in984.8 mb 0.00 in0.0 mm 0.00 in/hr0.0 mm/hr 0.00 in0.0 mm
12:56 PM 85.5°F29.7°C 67.0°F19.4°C 54% 3.0 mph SSW4.8 kmh SSW 7.0 mph11.3 kmh 29.08 in984.8 mb 0.00 in0.0 mm 0.00 in/hr0.0 mm/hr 0.00 in0.0 mm
12:54 PM 85.4°F29.7°C 67.4°F19.7°C 55% 4.0 mph SW6.4 kmh SW 7.0 mph11.3 kmh 29.08 in984.8 mb 0.00 in0.0 mm 0.00 in/hr0.0 mm/hr 0.00 in0.0 mm
12:52 PM 85.4°F29.7°C 67.4°F19.7°C 55% 2.0 mph SW3.2 kmh SW 7.0 mph11.3 kmh 29.08 in984.8 mb 0.00 in0.0 mm 0.00 in/hr0.0 mm/hr 0.00 in0.0 mm
12:50 PM 85.3°F29.6°C 67.8°F19.9°C 56% 1.0 mph SW1.6 kmh SW 7.0 mph11.3 kmh 29.08 in984.8 mb 0.00 in0.0 mm 0.00 in/hr0.0 mm/hr 0.00 in0.0 mm
12:48 PM 85.3°F29.6°C 67.3°F19.6°C 55% 2.0 mph SW3.2 kmh SW 7.0 mph11.3 kmh 29.08 in984.8 mb 0.00 in0.0 mm 0.00 in/hr0.0 mm/hr 0.00 in0.0 mm
12:46 PM 85.2°F29.6°C 67.2°F19.6°C 55% 2.0 mph SW3.2 kmh SW 7.0 mph11.3 kmh 29.08 in984.8 mb 0.00 in0.0 mm 0.00 in/hr0.0 mm/hr 0.00 in0.0 mm
12:44 PM 85.1°F29.5°C 67.1°F19.5°C 55% 6.0 mph SW9.7 kmh SW 7.0 mph11.3 kmh 29.08 in984.8 mb 0.00 in0.0 mm 0.00 in/hr0.0 mm/hr 0.00 in0.0 mm
12:42 PM 85.0°F29.4°C 67.6°F19.8°C 56% 2.0 mph SW3.2 kmh SW 7.0 mph11.3 kmh 29.08 in984.8 mb 0.00 in0.0 mm 0.00 in/hr0.0 mm/hr 0.00 in0.0 mm
12:40 PM 85.0°F29.4°C 67.0°F19.4°C 55% 4.0 mph SW6.4 kmh SW 7.0 mph11.3 kmh 29.08 in984.8 mb 0.00 in0.0 mm 0.00 in/hr0.0 mm/hr 0.00 in0.0 mm
12:38 PM 84.9°F29.4°C 67.0°F19.4°C 55% 2.0 mph SW3.2 kmh SW 7.0 mph11.3 kmh 29.09 in985.1 mb 0.00 in0.0 mm 0.00 in/hr0.0 mm/hr 0.00 in0.0 mm
12:36 PM 84.8°F29.3°C 67.9°F19.9°C 57% 1.0 mph SW1.6 kmh SW 5.0 mph8.0 kmh 29.09 in985.1 mb 0.00 in0.0 mm 0.00 in/hr0.0 mm/hr 0.00 in0.0 mm
12:34 PM 84.7°F29.3°C 67.8°F19.9°C 57% 4.0 mph SW6.4 kmh SW 5.0 mph8.0 kmh 29.08 in984.8 mb 0.00 in0.0 mm 0.00 in/hr0.0 mm/hr 0.00 in0.0 mm
12:32 PM 84.6°F29.2°C 67.2°F19.6°C 56% 4.0 mph SW6.4 kmh SW 5.0 mph8.0 kmh 29.09 in985.1 mb 0.00 in0.0 mm 0.00 in/hr0.0 mm/hr 0.00 in0.0 mm
12:30 PM 84.5°F29.2°C 67.6°F19.8°C 57% 2.0 mph SW3.2 kmh SW 2.0 mph3.2 kmh 29.09 in985.1 mb 0.00 in0.0 mm 0.00 in/hr0.0 mm/hr 0.00 in0.0 mm
12:28 PM 84.4°F29.1°C 67.5°F19.7°C 57% 1.0 mph SW1.6 kmh SW 8.0 mph12.9 kmh 29.09 in985.1 mb 0.00 in0.0 mm 0.00 in/hr0.0 mm/hr 0.00 in0.0 mm
12:26 PM 84.4°F29.1°C 68.0°F20.0°C 58% 3.0 mph SW4.8 kmh SW 8.0 mph12.9 kmh 29.09 in985.1 mb 0.00 in0.0 mm 0.00 in/hr0.0 mm/hr 0.00 in0.0 mm
12:24 PM 84.3°F29.1°C 67.4°F19.7°C 57% 2.0 mph SW3.2 kmh SW 8.0 mph12.9 kmh 29.08 in984.8 mb 0.00 in0.0 mm 0.00 in/hr0.0 mm/hr 0.00 in0.0 mm
12:22 PM 84.2°F29.0°C 67.8°F19.9°C 58% 3.0 mph SW4.8 kmh SW 8.0 mph12.9 kmh 29.08 in984.8 mb 0.00 in0.0 mm 0.00 in/hr0.0 mm/hr 0.00 in0.0 mm
12:20 PM 84.1°F28.9°C 66.7°F19.3°C 56% 4.0 mph WNW6.4 kmh WNW 8.0 mph12.9 kmh 29.09 in985.1 mb 0.00 in0.0 mm 0.00 in/hr0.0 mm/hr 0.00 in0.0 mm
12:18 PM 84.0°F28.9°C 67.7°F19.8°C 58% 1.0 mph SSW1.6 kmh SSW 6.0 mph9.7 kmh 29.09 in985.1 mb 0.00 in0.0 mm 0.00 in/hr0.0 mm/hr 0.00 in0.0 mm
12:16 PM 83.9°F28.8°C 68.1°F20.1°C 59% 4.0 mph SW6.4 kmh SW 6.0 mph9.7 kmh 29.09 in985.1 mb 0.00 in0.0 mm 0.00 in/hr0.0 mm/hr 0.00 in0.0 mm
12:14 PM 83.8°F28.8°C 68.0°F20.0°C 59% Calm Calm 6.0 mph9.7 kmh 29.09 in985.1 mb 0.00 in0.0 mm 0.00 in/hr0.0 mm/hr 0.00 in0.0 mm
12:12 PM 83.7°F28.7°C 67.9°F19.9°C 59% 1.0 mph SW1.6 kmh SW 6.0 mph9.7 kmh 29.09 in985.1 mb 0.00 in0.0 mm 0.00 in/hr0.0 mm/hr 0.00 in0.0 mm
12:10 PM 83.6°F28.7°C 68.3°F20.2°C 60% Calm Calm 6.0 mph9.7 kmh 29.09 in985.1 mb 0.00 in0.0 mm 0.00 in/hr0.0 mm/hr 0.00 in0.0 mm
12:08 PM 83.5°F28.6°C 67.7°F19.8°C 59% 1.0 mph SW1.6 kmh SW 6.0 mph9.7 kmh 29.09 in985.1 mb 0.00 in0.0 mm 0.00 in/hr0.0 mm/hr 0.00 in0.0 mm
12:06 PM 83.4°F28.6°C 67.6°F19.8°C 59% 2.0 mph SSW3.2 kmh SSW 6.0 mph9.7 kmh 29.09 in985.1 mb 0.00 in0.0 mm 0.00 in/hr0.0 mm/hr 0.00 in0.0 mm
12:04 PM 83.4°F28.6°C 68.1°F20.1°C 60% 2.0 mph SSW3.2 kmh SSW 6.0 mph9.7 kmh 29.09 in985.1 mb 0.00 in0.0 mm 0.00 in/hr0.0 mm/hr 0.00 in0.0 mm
12:02 PM 83.3°F28.5°C 67.5°F19.7°C 59% 4.0 mph SSW6.4 kmh SSW 6.0 mph9.7 kmh 29.09 in985.1 mb 0.00 in0.0 mm 0.00 in/hr0.0 mm/hr 0.00 in0.0 mm
12:00 PM 83.2°F28.4°C 67.4°F19.7°C 59% 1.0 mph SW1.6 kmh SW 3.0 mph4.8 kmh 29.09 in985.1 mb 0.00 in0.0 mm 0.00 in/hr0.0 mm/hr 0.00 in0.0 mm
11:58 AM 83.1°F28.4°C 67.8°F19.9°C 60% 3.0 mph SW4.8 kmh SW 9.0 mph14.5 kmh 29.09 in985.1 mb 0.00 in0.0 mm 0.00 in/hr0.0 mm/hr 0.00 in0.0 mm
11:56 AM 83.0°F28.3°C 67.7°F19.8°C 60% 1.0 mph WNW1.6 kmh WNW 9.0 mph14.5 kmh 29.09 in985.1 mb 0.00 in0.0 mm 0.00 in/hr0.0 mm/hr 0.00 in0.0 mm
11:54 AM 82.9°F28.3°C 67.6°F19.8°C 60% 1.0 mph SW1.6 kmh SW 9.0 mph14.5 kmh 29.09 in985.1 mb 0.00 in0.0 mm 0.00 in/hr0.0 mm/hr 0.00 in0.0 mm
11:52 AM 82.8°F28.2°C 67.5°F19.7°C 60% 4.0 mph SW6.4 kmh SW 9.0 mph14.5 kmh 29.09 in985.1 mb 0.00 in0.0 mm 0.00 in/hr0.0 mm/hr 0.00 in0.0 mm
11:50 AM 82.7°F28.2°C 67.4°F19.7°C 60% 5.0 mph SW8.0 kmh SW 9.0 mph14.5 kmh 29.09 in985.1 mb 0.00 in0.0 mm 0.00 in/hr0.0 mm/hr 0.00 in0.0 mm
11:48 AM 82.6°F28.1°C 67.8°F19.9°C 61% 2.0 mph SW3.2 kmh SW 5.0 mph8.0 kmh 29.09 in985.1 mb 0.00 in0.0 mm 0.00 in/hr0.0 mm/hr 0.00 in0.0 mm
11:46 AM 82.5°F28.1°C 67.7°F19.8°C 61% 2.0 mph SW3.2 kmh SW 4.0 mph6.4 kmh 29.10 in985.4 mb 0.00 in0.0 mm 0.00 in/hr0.0 mm/hr 0.00 in0.0 mm
11:44 AM 82.3°F27.9°C 68.0°F20.0°C 62% 1.0 mph SW1.6 kmh SW 4.0 mph6.4 kmh 29.09 in985.1 mb 0.00 in0.0 mm 0.00 in/hr0.0 mm/hr 0.00 in0.0 mm
11:42 AM 82.2°F27.9°C 67.9°F19.9°C 62% Calm Calm 4.0 mph6.4 kmh 29.09 in985.1 mb 0.00 in0.0 mm 0.00 in/hr0.0 mm/hr 0.00 in0.0 mm
11:40 AM 82.2°F27.9°C 67.9°F19.9°C 62% 2.0 mph WNW3.2 kmh WNW 4.0 mph6.4 kmh 29.09 in985.1 mb 0.00 in0.0 mm 0.00 in/hr0.0 mm/hr 0.00 in0.0 mm
11:38 AM 82.1°F27.8°C 68.3°F20.2°C 63% 3.0 mph NW4.8 kmh NW 4.0 mph6.4 kmh 29.10 in985.4 mb 0.00 in0.0 mm 0.00 in/hr0.0 mm/hr 0.00 in0.0 mm
11:36 AM 82.0°F27.8°C 68.2°F20.1°C 63% 2.0 mph NW3.2 kmh NW 4.0 mph6.4 kmh 29.10 in985.4 mb 0.00 in0.0 mm 0.00 in/hr0.0 mm/hr 0.00 in0.0 mm
11:34 AM 81.8°F27.7°C 67.5°F19.7°C 62% 1.0 mph SW1.6 kmh SW 4.0 mph6.4 kmh 29.10 in985.4 mb 0.00 in0.0 mm 0.00 in/hr0.0 mm/hr 0.00 in0.0 mm
11:32 AM 81.8°F27.7°C 67.5°F19.7°C 62% 2.0 mph SW3.2 kmh SW 4.0 mph6.4 kmh 29.10 in985.4 mb 0.00 in0.0 mm 0.00 in/hr0.0 mm/hr 0.00 in0.0 mm
11:30 AM 81.7°F27.6°C 67.4°F19.7°C 62% 1.0 mph SW1.6 kmh SW 1.0 mph1.6 kmh 29.09 in985.1 mb 0.00 in0.0 mm 0.00 in/hr0.0 mm/hr 0.00 in0.0 mm
11:28 AM 81.6°F27.6°C 67.3°F19.6°C 62% 3.0 mph SW4.8 kmh SW 9.0 mph14.5 kmh 29.10 in985.4 mb 0.00 in0.0 mm 0.00 in/hr0.0 mm/hr 0.00 in0.0 mm
11:26 AM 81.6°F27.6°C 67.3°F19.6°C 62% 2.0 mph SW3.2 kmh SW 9.0 mph14.5 kmh 29.10 in985.4 mb 0.00 in0.0 mm 0.00 in/hr0.0 mm/hr 0.00 in0.0 mm
11:24 AM 81.6°F27.6°C 67.3°F19.6°C 62% 3.0 mph SW4.8 kmh SW 9.0 mph14.5 kmh 29.10 in985.4 mb 0.00 in0.0 mm 0.00 in/hr0.0 mm/hr 0.00 in0.0 mm
11:22 AM 81.5°F27.5°C 67.7°F19.8°C 63% 1.0 mph SW1.6 kmh SW 9.0 mph14.5 kmh 29.10 in985.4 mb 0.00 in0.0 mm 0.00 in/hr0.0 mm/hr 0.00 in0.0 mm
11:20 AM 81.4°F27.4°C 67.1°F19.5°C 62% 2.0 mph SW3.2 kmh SW 9.0 mph14.5 kmh 29.10 in985.4 mb 0.00 in0.0 mm 0.00 in/hr0.0 mm/hr 0.00 in0.0 mm
11:18 AM 81.3°F27.4°C 67.5°F19.7°C 63% 3.0 mph SW4.8 kmh SW 9.0 mph14.5 kmh 29.10 in985.4 mb 0.00 in0.0 mm 0.00 in/hr0.0 mm/hr 0.00 in0.0 mm
11:16 AM 81.1°F27.3°C 66.9°F19.4°C 62% 3.0 mph SW4.8 kmh SW 9.0 mph14.5 kmh 29.10 in985.4 mb 0.00 in0.0 mm 0.00 in/hr0.0 mm/hr 0.00 in0.0 mm
11:14 AM 81.1°F27.3°C 67.3°F19.6°C 63% 5.0 mph NE8.0 kmh NE 7.0 mph11.3 kmh 29.10 in985.4 mb 0.00 in0.0 mm 0.00 in/hr0.0 mm/hr 0.00 in0.0 mm
11:12 AM 81.0°F27.2°C 67.2°F19.6°C 63% 2.0 mph SSW3.2 kmh SSW 7.0 mph11.3 kmh 29.10 in985.4 mb 0.00 in0.0 mm 0.00 in/hr0.0 mm/hr 0.00 in0.0 mm
11:10 AM 80.9°F27.2°C 67.1°F19.5°C 63% 2.0 mph SSW3.2 kmh SSW 7.0 mph11.3 kmh 29.10 in985.4 mb 0.00 in0.0 mm 0.00 in/hr0.0 mm/hr 0.00 in0.0 mm
11:08 AM 80.8°F27.1°C 67.5°F19.7°C 64% 3.0 mph SSW4.8 kmh SSW 7.0 mph11.3 kmh 29.10 in985.4 mb 0.00 in0.0 mm 0.00 in/hr0.0 mm/hr 0.00 in0.0 mm
11:06 AM 80.6°F27.0°C 67.3°F19.6°C 64% Calm Calm 7.0 mph11.3 kmh 29.10 in985.4 mb 0.00 in0.0 mm 0.00 in/hr0.0 mm/hr 0.00 in0.0 mm
11:04 AM 80.6°F27.0°C 67.3°F19.6°C 64% 1.0 mph SSW1.6 kmh SSW 7.0 mph11.3 kmh 29.10 in985.4 mb 0.00 in0.0 mm 0.00 in/hr0.0 mm/hr 0.00 in0.0 mm
11:02 AM 80.5°F26.9°C 67.2°F19.6°C 64% 2.0 mph SSW3.2 kmh SSW 7.0 mph11.3 kmh 29.10 in985.4 mb 0.00 in0.0 mm 0.00 in/hr0.0 mm/hr 0.00 in0.0 mm
11:00 AM 80.4°F26.9°C 67.1°F19.5°C 64% 2.0 mph S3.2 kmh S 2.0 mph3.2 kmh 29.10 in985.4 mb 0.00 in0.0 mm 0.00 in/hr0.0 mm/hr 0.00 in0.0 mm
10:58 AM 80.3°F26.8°C 67.0°F19.4°C 64% 4.0 mph S6.4 kmh S 9.0 mph14.5 kmh 29.10 in985.4 mb 0.00 in0.0 mm 0.00 in/hr0.0 mm/hr 0.00 in0.0 mm
10:56 AM 80.2°F26.8°C 66.9°F19.4°C 64% 3.0 mph S4.8 kmh S 9.0 mph14.5 kmh 29.10 in985.4 mb 0.00 in0.0 mm 0.00 in/hr0.0 mm/hr 0.00 in0.0 mm
10:54 AM 80.1°F26.7°C 67.3°F19.6°C 65% 1.0 mph S1.6 kmh S 9.0 mph14.5 kmh 29.10 in985.4 mb 0.00 in0.0 mm 0.00 in/hr0.0 mm/hr 0.00 in0.0 mm
10:52 AM 80.0°F26.7°C 67.2°F19.6°C 65% 2.0 mph SW3.2 kmh SW 9.0 mph14.5 kmh 29.10 in985.4 mb 0.00 in0.0 mm 0.00 in/hr0.0 mm/hr 0.00 in0.0 mm
10:50 AM 79.9°F26.6°C 67.5°F19.7°C 66% 3.0 mph SW4.8 kmh SW 9.0 mph14.5 kmh 29.10 in985.4 mb 0.00 in0.0 mm 0.00 in/hr0.0 mm/hr 0.00 in0.0 mm
10:48 AM 79.8°F26.6°C 67.0°F19.4°C 65% 5.0 mph SW8.0 kmh SW 9.0 mph14.5 kmh 29.10 in985.4 mb 0.00 in0.0 mm 0.00 in/hr0.0 mm/hr 0.00 in0.0 mm
10:46 AM 79.6°F26.4°C 66.8°F19.3°C 65% 4.0 mph SW6.4 kmh SW 9.0 mph14.5 kmh 29.10 in985.4 mb 0.00 in0.0 mm 0.00 in/hr0.0 mm/hr 0.00 in0.0 mm
10:44 AM 79.5°F26.4°C 66.7°F19.3°C 65% 6.0 mph SW9.7 kmh SW 9.0 mph14.5 kmh 29.10 in985.4 mb 0.00 in0.0 mm 0.00 in/hr0.0 mm/hr 0.00 in0.0 mm
10:42 AM 79.4°F26.3°C 66.2°F19.0°C 64% 3.0 mph SW4.8 kmh SW 9.0 mph14.5 kmh 29.10 in985.4 mb 0.00 in0.0 mm 0.00 in/hr0.0 mm/hr 0.00 in0.0 mm
10:40 AM 79.3°F26.3°C 67.0°F19.4°C 66% 5.0 mph SSW8.0 kmh SSW 9.0 mph14.5 kmh 29.10 in985.4 mb 0.00 in0.0 mm 0.00 in/hr0.0 mm/hr 0.00 in0.0 mm
10:38 AM 79.2°F26.2°C 66.9°F19.4°C 66% 3.0 mph SSW4.8 kmh SSW 9.0 mph14.5 kmh 29.10 in985.4 mb 0.00 in0.0 mm 0.00 in/hr0.0 mm/hr 0.00 in0.0 mm
10:36 AM 79.1°F26.2°C 67.2°F19.6°C 67% 2.0 mph SW3.2 kmh SW 9.0 mph14.5 kmh 29.10 in985.4 mb 0.00 in0.0 mm 0.00 in/hr0.0 mm/hr 0.00 in0.0 mm
10:34 AM 78.9°F26.1°C 67.5°F19.7°C 68% 2.0 mph SW3.2 kmh SW 9.0 mph14.5 kmh 29.10 in985.4 mb 0.00 in0.0 mm 0.00 in/hr0.0 mm/hr 0.00 in0.0 mm
10:32 AM 78.7°F25.9°C 67.3°F19.6°C 68% 2.0 mph ESE3.2 kmh ESE 3.0 mph4.8 kmh 29.10 in985.4 mb 0.00 in0.0 mm 0.00 in/hr0.0 mm/hr 0.00 in0.0 mm
10:30 AM 78.6°F25.9°C 67.2°F19.6°C 68% Calm Calm -- 29.10 in985.4 mb 0.00 in0.0 mm 0.00 in/hr0.0 mm/hr 0.00 in0.0 mm
10:28 AM 78.5°F25.8°C 67.5°F19.7°C 69% 2.0 mph SE3.2 kmh SE 4.0 mph6.4 kmh 29.10 in985.4 mb 0.00 in0.0 mm 0.00 in/hr0.0 mm/hr 0.00 in0.0 mm
10:26 AM 78.4°F25.8°C 67.0°F19.4°C 68% Calm Calm 4.0 mph6.4 kmh 29.10 in985.4 mb 0.00 in0.0 mm 0.00 in/hr0.0 mm/hr 0.00 in0.0 mm
10:24 AM 78.3°F25.7°C 66.9°F19.4°C 68% 2.0 mph SE3.2 kmh SE 4.0 mph6.4 kmh 29.10 in985.4 mb 0.00 in0.0 mm 0.00 in/hr0.0 mm/hr 0.00 in0.0 mm
10:22 AM 78.2°F25.7°C 67.2°F19.6°C 69% 2.0 mph SE3.2 kmh SE 4.0 mph6.4 kmh 29.10 in985.4 mb 0.00 in0.0 mm 0.00 in/hr0.0 mm/hr 0.00 in0.0 mm
10:20 AM 78.1°F25.6°C 67.1°F19.5°C 69% 2.0 mph SE3.2 kmh SE 4.0 mph6.4 kmh 29.10 in985.4 mb 0.00 in0.0 mm 0.00 in/hr0.0 mm/hr 0.00 in0.0 mm
10:18 AM 78.0°F25.6°C 67.0°F19.4°C 69% 3.0 mph E4.8 kmh E 4.0 mph6.4 kmh 29.10 in985.4 mb 0.00 in0.0 mm 0.00 in/hr0.0 mm/hr 0.00 in0.0 mm
10:16 AM 77.9°F25.5°C 67.3°F19.6°C 70% 1.0 mph SE1.6 kmh SE 4.0 mph6.4 kmh 29.10 in985.4 mb 0.00 in0.0 mm 0.00 in/hr0.0 mm/hr 0.00 in0.0 mm
10:14 AM 77.8°F25.4°C 67.2°F19.6°C 70% Calm Calm 4.0 mph6.4 kmh 29.10 in985.4 mb 0.00 in0.0 mm 0.00 in/hr0.0 mm/hr 0.00 in0.0 mm
10:12 AM 77.7°F25.4°C 67.6°F19.8°C 71% Calm Calm 4.0 mph6.4 kmh 29.10 in985.4 mb 0.00 in0.0 mm 0.00 in/hr0.0 mm/hr 0.00 in0.0 mm
10:10 AM 77.6°F25.3°C 67.5°F19.7°C 71% Calm Calm 4.0 mph6.4 kmh 29.10 in985.4 mb 0.00 in0.0 mm 0.00 in/hr0.0 mm/hr 0.00 in0.0 mm
10:08 AM 77.5°F25.3°C 67.0°F19.4°C 70% Calm Calm 4.0 mph6.4 kmh 29.10 in985.4 mb 0.00 in0.0 mm 0.00 in/hr0.0 mm/hr 0.00 in0.0 mm
10:06 AM 77.4°F25.2°C 67.3°F19.6°C 71% Calm Calm 4.0 mph6.4 kmh 29.10 in985.4 mb 0.00 in0.0 mm 0.00 in/hr0.0 mm/hr 0.00 in0.0 mm
10:04 AM 77.2°F25.1°C 67.1°F19.5°C 71% Calm Calm 4.0 mph6.4 kmh 29.10 in985.4 mb 0.00 in0.0 mm 0.00 in/hr0.0 mm/hr 0.00 in0.0 mm
10:02 AM 77.1°F25.1°C 67.0°F19.4°C 71% 3.0 mph E4.8 kmh E 3.0 mph4.8 kmh 29.10 in985.4 mb 0.00 in0.0 mm 0.00 in/hr0.0 mm/hr 0.00 in0.0 mm
10:00 AM 77.0°F25.0°C 67.3°F19.6°C 72% Calm Calm -- 29.10 in985.4 mb 0.00 in0.0 mm 0.00 in/hr0.0 mm/hr 0.00 in0.0 mm
09:58 AM 76.9°F24.9°C 67.2°F19.6°C 72% 3.0 mph E4.8 kmh E 5.0 mph8.0 kmh 29.10 in985.4 mb 0.00 in0.0 mm 0.00 in/hr0.0 mm/hr 0.00 in0.0 mm
09:56 AM 76.8°F24.9°C 67.1°F19.5°C 72% Calm Calm 5.0 mph8.0 kmh 29.10 in985.4 mb 0.00 in0.0 mm 0.00 in/hr0.0 mm/hr 0.00 in0.0 mm
09:54 AM 76.8°F24.9°C 67.1°F19.5°C 72% Calm Calm 5.0 mph8.0 kmh 29.10 in985.4 mb 0.00 in0.0 mm 0.00 in/hr0.0 mm/hr 0.00 in0.0 mm
09:52 AM 76.7°F24.8°C 67.0°F19.4°C 72% Calm Calm 5.0 mph8.0 kmh 29.10 in985.4 mb 0.00 in0.0 mm 0.00 in/hr0.0 mm/hr 0.00 in0.0 mm
09:50 AM 76.6°F24.8°C 66.9°F19.4°C 72% Calm Calm 5.0 mph8.0 kmh 29.10 in985.4 mb 0.00 in0.0 mm 0.00 in/hr0.0 mm/hr 0.00 in0.0 mm
09:48 AM 76.5°F24.7°C 67.2°F19.6°C 73% 2.0 mph SSW3.2 kmh SSW 5.0 mph8.0 kmh 29.10 in985.4 mb 0.00 in0.0 mm 0.00 in/hr0.0 mm/hr 0.00 in0.0 mm
09:46 AM 76.4°F24.7°C 67.1°F19.5°C 73% Calm Calm 5.0 mph8.0 kmh 29.10 in985.4 mb 0.00 in0.0 mm 0.00 in/hr0.0 mm/hr 0.00 in0.0 mm
09:44 AM 76.4°F24.7°C 67.1°F19.5°C 73% Calm Calm 5.0 mph8.0 kmh 29.10 in985.4 mb 0.00 in0.0 mm 0.00 in/hr0.0 mm/hr 0.00 in0.0 mm
09:42 AM 76.2°F24.6°C 67.3°F19.6°C 74% Calm Calm 5.0 mph8.0 kmh 29.10 in985.4 mb 0.00 in0.0 mm 0.00 in/hr0.0 mm/hr 0.00 in0.0 mm
09:40 AM 76.1°F24.5°C 67.2°F19.6°C 74% 3.0 mph SSW4.8 kmh SSW 5.0 mph8.0 kmh 29.10 in985.4 mb 0.00 in0.0 mm 0.00 in/hr0.0 mm/hr 0.00 in0.0 mm
09:38 AM 75.9°F24.4°C 67.0°F19.4°C 74% 1.0 mph SSW1.6 kmh SSW 2.0 mph3.2 kmh 29.10 in985.4 mb 0.00 in0.0 mm 0.00 in/hr0.0 mm/hr 0.00 in0.0 mm
09:36 AM 75.9°F24.4°C 67.4°F19.7°C 75% Calm Calm 2.0 mph3.2 kmh 29.10 in985.4 mb 0.00 in0.0 mm 0.00 in/hr0.0 mm/hr 0.00 in0.0 mm
09:34 AM 75.8°F24.3°C 67.3°F19.6°C 75% 2.0 mph SSW3.2 kmh SSW 2.0 mph3.2 kmh 29.10 in985.4 mb 0.00 in0.0 mm 0.00 in/hr0.0 mm/hr 0.00 in0.0 mm
09:32 AM 75.7°F24.3°C 67.2°F19.6°C 75% Calm Calm 1.0 mph1.6 kmh 29.10 in985.4 mb 0.00 in0.0 mm 0.00 in/hr0.0 mm/hr 0.00 in0.0 mm
09:30 AM 75.6°F24.2°C 67.5°F19.7°C 76% 1.0 mph SSW1.6 kmh SSW 1.0 mph1.6 kmh 29.10 in985.4 mb 0.00 in0.0 mm 0.00 in/hr0.0 mm/hr 0.00 in0.0 mm
09:28 AM 75.5°F24.2°C 67.8°F19.9°C 77% Calm Calm 4.0 mph6.4 kmh 29.10 in985.4 mb 0.00 in0.0 mm 0.00 in/hr0.0 mm/hr 0.00 in0.0 mm
09:26 AM 75.4°F24.1°C 67.3°F19.6°C 76% Calm Calm 4.0 mph6.4 kmh 29.10 in985.4 mb 0.00 in0.0 mm 0.00 in/hr0.0 mm/hr 0.00 in0.0 mm
09:24 AM 75.3°F24.1°C 67.2°F19.6°C 76% Calm Calm 4.0 mph6.4 kmh 29.10 in985.4 mb 0.00 in0.0 mm 0.00 in/hr0.0 mm/hr 0.00 in0.0 mm
09:22 AM 75.2°F24.0°C 67.1°F19.5°C 76% 1.0 mph SSW1.6 kmh SSW 4.0 mph6.4 kmh 29.10 in985.4 mb 0.00 in0.0 mm 0.00 in/hr0.0 mm/hr 0.00 in0.0 mm
09:20 AM 75.1°F23.9°C 67.0°F19.4°C 76% 1.0 mph SSW1.6 kmh SSW 4.0 mph6.4 kmh 29.10 in985.4 mb 0.00 in0.0 mm 0.00 in/hr0.0 mm/hr 0.00 in0.0 mm
09:18 AM 75.0°F23.9°C 66.9°F19.4°C 76% Calm Calm 4.0 mph6.4 kmh 29.10 in985.4 mb 0.00 in0.0 mm 0.00 in/hr0.0 mm/hr 0.00 in0.0 mm
09:16 AM 74.9°F23.8°C 67.2°F19.6°C 77% 2.0 mph SSW3.2 kmh SSW 4.0 mph6.4 kmh 29.10 in985.4 mb 0.00 in0.0 mm 0.00 in/hr0.0 mm/hr 0.00 in0.0 mm
09:14 AM 74.7°F23.7°C 66.6°F19.2°C 76% Calm Calm 4.0 mph6.4 kmh 29.10 in985.4 mb 0.00 in0.0 mm 0.00 in/hr0.0 mm/hr 0.00 in0.0 mm
09:12 AM 74.6°F23.7°C 66.9°F19.4°C 77% Calm Calm 4.0 mph6.4 kmh 29.10 in985.4 mb 0.00 in0.0 mm 0.00 in/hr0.0 mm/hr 0.00 in0.0 mm
09:10 AM 74.5°F23.6°C 66.8°F19.3°C 77% 1.0 mph SSW1.6 kmh SSW 4.0 mph6.4 kmh 29.10 in985.4 mb 0.00 in0.0 mm 0.00 in/hr0.0 mm/hr 0.00 in0.0 mm
09:08 AM 74.4°F23.6°C 67.1°F19.5°C 78% 1.0 mph SSW1.6 kmh SSW 1.0 mph1.6 kmh 29.10 in985.4 mb 0.00 in0.0 mm 0.00 in/hr0.0 mm/hr 0.00 in0.0 mm
09:06 AM 74.3°F23.5°C 67.0°F19.4°C 78% Calm Calm 1.0 mph1.6 kmh 29.10 in985.4 mb 0.00 in0.0 mm 0.00 in/hr0.0 mm/hr 0.00 in0.0 mm
09:04 AM 74.3°F23.5°C 67.0°F19.4°C 78% Calm Calm 1.0 mph1.6 kmh 29.10 in985.4 mb 0.00 in0.0 mm 0.00 in/hr0.0 mm/hr 0.00 in0.0 mm
09:02 AM 74.2°F23.4°C 66.9°F19.4°C 78% Calm Calm 1.0 mph1.6 kmh 29.10 in985.4 mb 0.00 in0.0 mm 0.00 in/hr0.0 mm/hr 0.00 in0.0 mm
09:00 AM 74.1°F23.4°C 67.2°F19.6°C 79% 1.0 mph SSW1.6 kmh SSW 1.0 mph1.6 kmh 29.10 in985.4 mb 0.00 in0.0 mm 0.00 in/hr0.0 mm/hr 0.00 in0.0 mm
08:58 AM 74.0°F23.3°C 67.1°F19.5°C 79% Calm Calm 3.0 mph4.8 kmh 29.10 in985.4 mb 0.00 in0.0 mm 0.00 in/hr0.0 mm/hr 0.00 in0.0 mm
08:56 AM 73.9°F23.3°C 67.0°F19.4°C 79% 1.0 mph SSW1.6 kmh SSW 3.0 mph4.8 kmh 29.10 in985.4 mb 0.00 in0.0 mm 0.00 in/hr0.0 mm/hr 0.00 in0.0 mm
08:54 AM 73.8°F23.2°C 66.9°F19.4°C 79% Calm Calm 3.0 mph4.8 kmh 29.10 in985.4 mb 0.00 in0.0 mm 0.00 in/hr0.0 mm/hr 0.00 in0.0 mm
08:52 AM 73.7°F23.2°C 66.8°F19.3°C 79% Calm Calm 3.0 mph4.8 kmh 29.10 in985.4 mb 0.00 in0.0 mm 0.00 in/hr0.0 mm/hr 0.00 in0.0 mm
08:50 AM 73.6°F23.1°C 66.7°F19.3°C 79% Calm Calm 3.0 mph4.8 kmh 29.10 in985.4 mb 0.00 in0.0 mm 0.00 in/hr0.0 mm/hr 0.00 in0.0 mm
08:48 AM 73.5°F23.1°C 66.6°F19.2°C 79% Calm Calm 3.0 mph4.8 kmh 29.10 in985.4 mb 0.00 in0.0 mm 0.00 in/hr0.0 mm/hr 0.00 in0.0 mm
08:46 AM 73.4°F23.0°C 66.5°F19.2°C 79% Calm Calm 3.0 mph4.8 kmh 29.10 in985.4 mb 0.00 in0.0 mm 0.00 in/hr0.0 mm/hr 0.00 in0.0 mm
08:44 AM 73.3°F22.9°C 66.4°F19.1°C 79% 1.0 mph SSW1.6 kmh SSW 3.0 mph4.8 kmh 29.10 in985.4 mb 0.00 in0.0 mm 0.00 in/hr0.0 mm/hr 0.00 in0.0 mm
08:42 AM 73.2°F22.9°C 66.3°F19.1°C 79% 2.0 mph SSW3.2 kmh SSW 3.0 mph4.8 kmh 29.10 in985.4 mb 0.00 in0.0 mm 0.00 in/hr0.0 mm/hr 0.00 in0.0 mm
08:40 AM 73.1°F22.8°C 66.6°F19.2°C 80% Calm Calm 2.0 mph3.2 kmh 29.10 in985.4 mb 0.00 in0.0 mm 0.00 in/hr0.0 mm/hr 0.00 in0.0 mm
08:38 AM 73.0°F22.8°C 66.5°F19.2°C 80% Calm Calm 2.0 mph3.2 kmh 29.09 in985.1 mb 0.00 in0.0 mm 0.00 in/hr0.0 mm/hr 0.00 in0.0 mm
08:36 AM 72.9°F22.7°C 66.4°F19.1°C 80% 1.0 mph SSW1.6 kmh SSW 2.0 mph3.2 kmh 29.10 in985.4 mb 0.00 in0.0 mm 0.00 in/hr0.0 mm/hr 0.00 in0.0 mm
08:34 AM 72.8°F22.7°C 66.3°F19.1°C 80% Calm Calm -- 29.10 in985.4 mb 0.00 in0.0 mm 0.00 in/hr0.0 mm/hr 0.00 in0.0 mm
08:32 AM 72.7°F22.6°C 66.2°F19.0°C 80% Calm Calm -- 29.10 in985.4 mb 0.00 in0.0 mm 0.00 in/hr0.0 mm/hr 0.00 in0.0 mm
08:30 AM 72.6°F22.6°C 66.4°F19.1°C 81% Calm Calm -- 29.10 in985.4 mb 0.00 in0.0 mm 0.00 in/hr0.0 mm/hr 0.00 in0.0 mm
08:28 AM 72.5°F22.5°C 66.3°F19.1°C 81% Calm Calm -- 29.09 in985.1 mb 0.00 in0.0 mm 0.00 in/hr0.0 mm/hr 0.00 in0.0 mm
08:26 AM 72.4°F22.4°C 66.3°F19.1°C 81% Calm Calm -- 29.09 in985.1 mb 0.00 in0.0 mm 0.00 in/hr0.0 mm/hr 0.00 in0.0 mm
08:24 AM 72.3°F22.4°C 66.2°F19.0°C 81% Calm Calm -- 29.09 in985.1 mb 0.00 in0.0 mm 0.00 in/hr0.0 mm/hr 0.00 in0.0 mm
08:22 AM 72.2°F22.3°C 66.1°F18.9°C 81% Calm Calm -- 29.10 in985.4 mb 0.00 in0.0 mm 0.00 in/hr0.0 mm/hr 0.00 in0.0 mm
08:20 AM 72.1°F22.3°C 66.0°F18.9°C 81% Calm Calm -- 29.09 in985.1 mb 0.00 in0.0 mm 0.00 in/hr0.0 mm/hr 0.00 in0.0 mm
08:18 AM 72.0°F22.2°C 65.9°F18.8°C 81% Calm Calm -- 29.09 in985.1 mb 0.00 in0.0 mm 0.00 in/hr0.0 mm/hr 0.00 in0.0 mm
08:16 AM 71.9°F22.2°C 65.8°F18.8°C 81% Calm Calm -- 29.09 in985.1 mb 0.00 in0.0 mm 0.00 in/hr0.0 mm/hr 0.00 in0.0 mm
08:14 AM 71.8°F22.1°C 65.7°F18.7°C 81% Calm Calm -- 29.09 in985.1 mb 0.00 in0.0 mm 0.00 in/hr0.0 mm/hr 0.00 in0.0 mm
08:12 AM 71.6°F22.0°C 65.5°F18.6°C 81% Calm Calm -- 29.10 in985.4 mb 0.00 in0.0 mm 0.00 in/hr0.0 mm/hr 0.00 in0.0 mm
08:10 AM 71.5°F21.9°C 65.4°F18.6°C 81% Calm Calm -- 29.09 in985.1 mb 0.00 in0.0 mm 0.00 in/hr0.0 mm/hr 0.00 in0.0 mm
08:08 AM 71.4°F21.9°C 65.3°F18.5°C 81% Calm Calm -- 29.09 in985.1 mb 0.00 in0.0 mm 0.00 in/hr0.0 mm/hr 0.00 in0.0 mm
08:06 AM 71.3°F21.8°C 65.2°F18.4°C 81% Calm Calm -- 29.09 in985.1 mb 0.00 in0.0 mm 0.00 in/hr0.0 mm/hr 0.00 in0.0 mm
08:04 AM 71.2°F21.8°C 65.1°F18.4°C 81% Calm Calm -- 29.09 in985.1 mb 0.00 in0.0 mm 0.00 in/hr0.0 mm/hr 0.00 in0.0 mm
08:02 AM 71.1°F21.7°C 65.0°F18.3°C 81% Calm Calm -- 29.09 in985.1 mb 0.00 in0.0 mm 0.00 in/hr0.0 mm/hr 0.00 in0.0 mm
08:00 AM 71.0°F21.7°C 64.9°F18.3°C 81% Calm Calm -- 29.09 in985.1 mb 0.00 in0.0 mm 0.00 in/hr0.0 mm/hr 0.00 in0.0 mm
07:58 AM 70.9°F21.6°C 64.8°F18.2°C 81% Calm Calm -- 29.09 in985.1 mb 0.00 in0.0 mm 0.00 in/hr0.0 mm/hr 0.00 in0.0 mm
07:56 AM 70.7°F21.5°C 64.2°F17.9°C 80% Calm Calm -- 29.09 in985.1 mb 0.00 in0.0 mm 0.00 in/hr0.0 mm/hr 0.00 in0.0 mm
07:54 AM 70.6°F21.4°C 64.1°F17.8°C 80% Calm Calm -- 29.09 in985.1 mb 0.00 in0.0 mm 0.00 in/hr0.0 mm/hr 0.00 in0.0 mm
07:52 AM 70.5°F21.4°C 64.0°F17.8°C 80% Calm Calm -- 29.09 in985.1 mb 0.00 in0.0 mm 0.00 in/hr0.0 mm/hr 0.00 in0.0 mm
07:50 AM 70.4°F21.3°C 63.9°F17.7°C 80% Calm Calm -- 29.09 in985.1 mb 0.00 in0.0 mm 0.00 in/hr0.0 mm/hr 0.00 in0.0 mm
07:48 AM 70.3°F21.3°C 63.9°F17.7°C 80% Calm Calm -- 29.09 in985.1 mb 0.00 in0.0 mm 0.00 in/hr0.0 mm/hr 0.00 in0.0 mm
07:46 AM 70.3°F21.3°C 63.9°F17.7°C 80% Calm Calm -- 29.09 in985.1 mb 0.00 in0.0 mm 0.00 in/hr0.0 mm/hr 0.00 in0.0 mm
07:43 AM 70.2°F21.2°C 63.8°F17.7°C 80% Calm Calm -- 29.09 in985.1 mb 0.00 in0.0 mm 0.00 in/hr0.0 mm/hr 0.00 in0.0 mm
07:42 AM 70.2°F21.2°C 63.8°F17.7°C 80% Calm Calm -- 29.09 in985.1 mb 0.00 in0.0 mm 0.00 in/hr0.0 mm/hr 0.00 in0.0 mm
07:40 AM 70.1°F21.2°C 63.7°F17.6°C 80% Calm Calm -- 29.09 in985.1 mb 0.00 in0.0 mm 0.00 in/hr0.0 mm/hr 0.00 in0.0 mm
07:38 AM 70.1°F21.2°C 63.7°F17.6°C 80% Calm Calm -- 29.09 in985.1 mb 0.00 in0.0 mm 0.00 in/hr0.0 mm/hr 0.00 in0.0 mm
07:36 AM 70.0°F21.1°C 63.6°F17.6°C 80% Calm Calm -- 29.09 in985.1 mb 0.00 in0.0 mm 0.00 in/hr0.0 mm/hr 0.00 in0.0 mm
07:34 AM 69.9°F21.1°C 63.5°F17.5°C 80% Calm Calm -- 29.09 in985.1 mb 0.00 in0.0 mm 0.00 in/hr0.0 mm/hr 0.00 in0.0 mm
07:32 AM 69.9°F21.1°C 63.5°F17.5°C 80% Calm Calm -- 29.09 in985.1 mb 0.00 in0.0 mm 0.00 in/hr0.0 mm/hr 0.00 in0.0 mm
07:30 AM 69.9°F21.1°C 63.1°F17.3°C 79% Calm Calm -- 29.09 in985.1 mb 0.00 in0.0 mm 0.00 in/hr0.0 mm/hr 0.00 in0.0 mm
07:28 AM 69.8°F21.0°C 63.0°F17.2°C 79% Calm Calm -- 29.09 in985.1 mb 0.00 in0.0 mm 0.00 in/hr0.0 mm/hr 0.00 in0.0 mm
07:26 AM 69.8°F21.0°C 63.0°F17.2°C 79% Calm Calm -- 29.08 in984.8 mb 0.00 in0.0 mm 0.00 in/hr0.0 mm/hr 0.00 in0.0 mm
07:24 AM 69.8°F21.0°C 63.0°F17.2°C 79% Calm Calm -- 29.08 in984.8 mb 0.00 in0.0 mm 0.00 in/hr0.0 mm/hr 0.00 in0.0 mm
07:22 AM 69.8°F21.0°C 63.0°F17.2°C 79% Calm Calm -- 29.09 in985.1 mb 0.00 in0.0 mm 0.00 in/hr0.0 mm/hr 0.00 in0.0 mm
07:20 AM 69.8°F21.0°C 63.0°F17.2°C 79% Calm Calm -- 29.09 in985.1 mb 0.00 in0.0 mm 0.00 in/hr0.0 mm/hr 0.00 in0.0 mm
07:18 AM 69.8°F21.0°C 63.0°F17.2°C 79% Calm Calm -- 29.08 in984.8 mb 0.00 in0.0 mm 0.00 in/hr0.0 mm/hr 0.00 in0.0 mm
07:16 AM 69.8°F21.0°C 63.0°F17.2°C 79% Calm Calm -- 29.08 in984.8 mb 0.00 in0.0 mm 0.00 in/hr0.0 mm/hr 0.00 in0.0 mm
07:14 AM 69.8°F21.0°C 63.0°F17.2°C 79% Calm Calm -- 29.08 in984.8 mb 0.00 in0.0 mm 0.00 in/hr0.0 mm/hr 0.00 in0.0 mm
07:12 AM 69.8°F21.0°C 63.0°F17.2°C 79% Calm Calm -- 29.08 in984.8 mb 0.00 in0.0 mm 0.00 in/hr0.0 mm/hr 0.00 in0.0 mm
07:10 AM 69.7°F20.9°C 62.9°F17.2°C 79% Calm Calm -- 29.08 in984.8 mb 0.00 in0.0 mm 0.00 in/hr0.0 mm/hr 0.00 in0.0 mm
07:08 AM 69.7°F20.9°C 62.9°F17.2°C 79% Calm Calm -- 29.08 in984.8 mb 0.00 in0.0 mm 0.00 in/hr0.0 mm/hr 0.00 in0.0 mm
07:06 AM 69.7°F20.9°C 62.9°F17.2°C 79% Calm Calm -- 29.08 in984.8 mb 0.00 in0.0 mm 0.00 in/hr0.0 mm/hr 0.00 in0.0 mm
07:04 AM 69.7°F20.9°C 62.9°F17.2°C 79% Calm Calm -- 29.08 in984.8 mb 0.00 in0.0 mm 0.00 in/hr0.0 mm/hr 0.00 in0.0 mm
07:02 AM 69.7°F20.9°C 62.9°F17.2°C 79% Calm Calm -- 29.08 in984.8 mb 0.00 in0.0 mm 0.00 in/hr0.0 mm/hr 0.00 in0.0 mm
07:00 AM 69.7°F20.9°C 62.9°F17.2°C 79% Calm Calm -- 29.08 in984.8 mb 0.00 in0.0 mm 0.00 in/hr0.0 mm/hr 0.00 in0.0 mm
06:58 AM 69.8°F21.0°C 62.6°F17.0°C 78% Calm Calm -- 29.08 in984.8 mb 0.00 in0.0 mm 0.00 in/hr0.0 mm/hr 0.00 in0.0 mm
06:56 AM 69.8°F21.0°C 62.6°F17.0°C 78% Calm Calm -- 29.08 in984.8 mb 0.00 in0.0 mm 0.00 in/hr0.0 mm/hr 0.00 in0.0 mm
06:54 AM 69.8°F21.0°C 62.6°F17.0°C 78% Calm Calm -- 29.08 in984.8 mb 0.00 in0.0 mm 0.00 in/hr0.0 mm/hr 0.00 in0.0 mm
06:52 AM 69.8°F21.0°C 62.6°F17.0°C 78% Calm Calm -- 29.08 in984.8 mb 0.00 in0.0 mm 0.00 in/hr0.0 mm/hr 0.00 in0.0 mm
06:50 AM 69.8°F21.0°C 62.6°F17.0°C 78% Calm Calm -- 29.08 in984.8 mb 0.00 in0.0 mm 0.00 in/hr0.0 mm/hr 0.00 in0.0 mm
06:48 AM 69.9°F21.1°C 62.7°F17.1°C 78% Calm Calm -- 29.08 in984.8 mb 0.00 in0.0 mm 0.00 in/hr0.0 mm/hr 0.00 in0.0 mm
06:46 AM 69.9°F21.1°C 62.7°F17.1°C 78% Calm Calm -- 29.08 in984.8 mb 0.00 in0.0 mm 0.00 in/hr0.0 mm/hr 0.00 in0.0 mm
06:44 AM 70.0°F21.1°C 62.8°F17.1°C 78% Calm Calm -- 29.08 in984.8 mb 0.00 in0.0 mm 0.00 in/hr0.0 mm/hr 0.00 in0.0 mm
06:42 AM 70.0°F21.1°C 62.8°F17.1°C 78% Calm Calm -- 29.08 in984.8 mb 0.00 in0.0 mm 0.00 in/hr0.0 mm/hr 0.00 in0.0 mm
06:40 AM 70.0°F21.1°C 62.8°F17.1°C 78% Calm Calm -- 29.08 in984.8 mb 0.00 in0.0 mm 0.00 in/hr0.0 mm/hr 0.00 in0.0 mm
06:38 AM 70.1°F21.2°C 62.9°F17.2°C 78% Calm Calm -- 29.08 in984.8 mb 0.00 in0.0 mm 0.00 in/hr0.0 mm/hr 0.00 in0.0 mm
06:36 AM 70.1°F21.2°C 62.9°F17.2°C 78% Calm Calm -- 29.08 in984.8 mb 0.00 in0.0 mm 0.00 in/hr0.0 mm/hr 0.00 in0.0 mm
06:34 AM 70.1°F21.2°C 62.9°F17.2°C 78% Calm Calm -- 29.08 in984.8 mb 0.00 in0.0 mm 0.00 in/hr0.0 mm/hr 0.00 in0.0 mm
06:32 AM 70.2°F21.2°C 62.7°F17.1°C 77% Calm Calm -- 29.08 in984.8 mb 0.00 in0.0 mm 0.00 in/hr0.0 mm/hr 0.00 in0.0 mm
06:30 AM 70.2°F21.2°C 63.0°F17.2°C 78% Calm Calm -- 29.08 in984.8 mb 0.00 in0.0 mm 0.00 in/hr0.0 mm/hr 0.00 in0.0 mm
06:27 AM 70.3°F21.3°C 63.1°F17.3°C 78% Calm Calm -- 29.08 in984.8 mb 0.00 in0.0 mm 0.00 in/hr0.0 mm/hr 0.00 in0.0 mm
06:26 AM 70.3°F21.3°C 63.1°F17.3°C 78% Calm Calm -- 29.08 in984.8 mb 0.00 in0.0 mm 0.00 in/hr0.0 mm/hr 0.00 in0.0 mm
06:24 AM 70.3°F21.3°C 63.1°F17.3°C 78% Calm Calm -- 29.08 in984.8 mb 0.00 in0.0 mm 0.00 in/hr0.0 mm/hr 0.00 in0.0 mm
06:22 AM 70.4°F21.3°C 63.2°F17.3°C 78% Calm Calm -- 29.08 in984.8 mb 0.00 in0.0 mm 0.00 in/hr0.0 mm/hr 0.00 in0.0 mm
06:20 AM 70.4°F21.3°C 63.2°F17.3°C 78% Calm Calm -- 29.08 in984.8 mb 0.00 in0.0 mm 0.00 in/hr0.0 mm/hr 0.00 in0.0 mm
06:18 AM 70.4°F21.3°C 63.2°F17.3°C 78% Calm Calm -- 29.08 in984.8 mb 0.00 in0.0 mm 0.00 in/hr0.0 mm/hr 0.00 in0.0 mm
06:16 AM 70.5°F21.4°C 63.3°F17.4°C 78% Calm Calm -- 29.08 in984.8 mb 0.00 in0.0 mm 0.00 in/hr0.0 mm/hr 0.00 in0.0 mm
06:14 AM 70.6°F21.4°C 63.4°F17.4°C 78% Calm Calm -- 29.08 in984.8 mb 0.00 in0.0 mm 0.00 in/hr0.0 mm/hr 0.00 in0.0 mm
06:12 AM 70.6°F21.4°C 63.4°F17.4°C 78% Calm Calm -- 29.08 in984.8 mb 0.00 in0.0 mm 0.00 in/hr0.0 mm/hr 0.00 in0.0 mm
06:10 AM 70.6°F21.4°C 63.4°F17.4°C 78% Calm Calm -- 29.08 in984.8 mb 0.00 in0.0 mm 0.00 in/hr0.0 mm/hr 0.00 in0.0 mm
06:08 AM 70.7°F21.5°C 63.5°F17.5°C 78% Calm Calm -- 29.07 in984.4 mb 0.00 in0.0 mm 0.00 in/hr0.0 mm/hr 0.00 in0.0 mm
06:06 AM 70.7°F21.5°C 63.5°F17.5°C 78% Calm Calm -- 29.07 in984.4 mb 0.00 in0.0 mm 0.00 in/hr0.0 mm/hr 0.00 in0.0 mm
06:04 AM 70.7°F21.5°C 63.5°F17.5°C 78% Calm Calm -- 29.07 in984.4 mb 0.00 in0.0 mm 0.00 in/hr0.0 mm/hr 0.00 in0.0 mm
06:02 AM 70.7°F21.5°C 63.5°F17.5°C 78% Calm Calm -- 29.07 in984.4 mb 0.00 in0.0 mm 0.00 in/hr0.0 mm/hr 0.00 in0.0 mm
06:00 AM 70.8°F21.6°C 63.6°F17.6°C 78% Calm Calm -- 29.07 in984.4 mb 0.00 in0.0 mm 0.00 in/hr0.0 mm/hr 0.00 in0.0 mm
05:58 AM 70.8°F21.6°C 63.6°F17.6°C 78% Calm Calm -- 29.07 in984.4 mb 0.00 in0.0 mm 0.00 in/hr0.0 mm/hr 0.00 in0.0 mm
05:56 AM 70.8°F21.6°C 63.6°F17.6°C 78% Calm Calm -- 29.07 in984.4 mb 0.00 in0.0 mm 0.00 in/hr0.0 mm/hr 0.00 in0.0 mm
05:54 AM 70.8°F21.6°C 63.6°F17.6°C 78% Calm Calm -- 29.07 in984.4 mb 0.00 in0.0 mm 0.00 in/hr0.0 mm/hr 0.00 in0.0 mm
05:52 AM 70.9°F21.6°C 63.3°F17.4°C 77% Calm Calm -- 29.07 in984.4 mb 0.00 in0.0 mm 0.00 in/hr0.0 mm/hr 0.00 in0.0 mm
05:50 AM 70.9°F21.6°C 63.3°F17.4°C 77% Calm Calm -- 29.07 in984.4 mb 0.00 in0.0 mm 0.00 in/hr0.0 mm/hr 0.00 in0.0 mm
05:48 AM 70.9°F21.6°C 63.3°F17.4°C 77% Calm Calm -- 29.07 in984.4 mb 0.00 in0.0 mm 0.00 in/hr0.0 mm/hr 0.00 in0.0 mm
05:46 AM 71.0°F21.7°C 63.4°F17.4°C 77% Calm Calm -- 29.07 in984.4 mb 0.00 in0.0 mm 0.00 in/hr0.0 mm/hr 0.00 in0.0 mm
05:44 AM 71.0°F21.7°C 63.4°F17.4°C 77% Calm Calm -- 29.07 in984.4 mb 0.00 in0.0 mm 0.00 in/hr0.0 mm/hr 0.00 in0.0 mm
05:42 AM 71.0°F21.7°C 63.4°F17.4°C 77% Calm Calm -- 29.07 in984.4 mb 0.00 in0.0 mm 0.00 in/hr0.0 mm/hr 0.00 in0.0 mm
05:40 AM 71.1°F21.7°C 63.5°F17.5°C 77% Calm Calm -- 29.07 in984.4 mb 0.00 in0.0 mm 0.00 in/hr0.0 mm/hr 0.00 in0.0 mm
05:38 AM 71.1°F21.7°C 63.5°F17.5°C 77% Calm Calm -- 29.07 in984.4 mb 0.00 in0.0 mm 0.00 in/hr0.0 mm/hr 0.00 in0.0 mm
05:36 AM 71.2°F21.8°C 63.6°F17.6°C 77% Calm Calm -- 29.07 in984.4 mb 0.00 in0.0 mm 0.00 in/hr0.0 mm/hr 0.00 in0.0 mm
05:34 AM 71.2°F21.8°C 63.6°F17.6°C 77% Calm Calm -- 29.07 in984.4 mb 0.00 in0.0 mm 0.00 in/hr0.0 mm/hr 0.00 in0.0 mm
05:32 AM 71.3°F21.8°C 63.7°F17.6°C 77% Calm Calm -- 29.06 in984.1 mb 0.00 in0.0 mm 0.00 in/hr0.0 mm/hr 0.00 in0.0 mm
05:30 AM 71.3°F21.8°C 63.7°F17.6°C 77% Calm Calm -- 29.07 in984.4 mb 0.00 in0.0 mm 0.00 in/hr0.0 mm/hr 0.00 in0.0 mm
05:28 AM 71.3°F21.8°C 63.7°F17.6°C 77% Calm Calm -- 29.06 in984.1 mb 0.00 in0.0 mm 0.00 in/hr0.0 mm/hr 0.00 in0.0 mm
05:26 AM 71.3°F21.8°C 63.7°F17.6°C 77% Calm Calm -- 29.06 in984.1 mb 0.00 in0.0 mm 0.00 in/hr0.0 mm/hr 0.00 in0.0 mm
05:24 AM 71.4°F21.9°C 63.8°F17.7°C 77% Calm Calm -- 29.06 in984.1 mb 0.00 in0.0 mm 0.00 in/hr0.0 mm/hr 0.00 in0.0 mm
05:22 AM 71.5°F21.9°C 63.9°F17.7°C 77% Calm Calm -- 29.06 in984.1 mb 0.00 in0.0 mm 0.00 in/hr0.0 mm/hr 0.00 in0.0 mm
05:20 AM 71.5°F21.9°C 63.9°F17.7°C 77% Calm Calm -- 29.06 in984.1 mb 0.00 in0.0 mm 0.00 in/hr0.0 mm/hr 0.00 in0.0 mm
05:18 AM 71.6°F22.0°C 64.0°F17.8°C 77% Calm Calm -- 29.06 in984.1 mb 0.00 in0.0 mm 0.00 in/hr0.0 mm/hr 0.00 in0.0 mm
05:16 AM 71.6°F22.0°C 64.0°F17.8°C 77% Calm Calm -- 29.06 in984.1 mb 0.00 in0.0 mm 0.00 in/hr0.0 mm/hr 0.00 in0.0 mm
05:14 AM 71.6°F22.0°C 63.6°F17.6°C 76% Calm Calm -- 29.06 in984.1 mb 0.00 in0.0 mm 0.00 in/hr0.0 mm/hr 0.00 in0.0 mm
05:12 AM 71.7°F22.1°C 64.1°F17.8°C 77% Calm Calm -- 29.06 in984.1 mb 0.00 in0.0 mm 0.00 in/hr0.0 mm/hr 0.00 in0.0 mm
05:10 AM 71.7°F22.1°C 64.1°F17.8°C 77% Calm Calm -- 29.06 in984.1 mb 0.00 in0.0 mm 0.00 in/hr0.0 mm/hr 0.00 in0.0 mm
05:08 AM 71.8°F22.1°C 63.8°F17.7°C 76% Calm Calm -- 29.06 in984.1 mb 0.00 in0.0 mm 0.00 in/hr0.0 mm/hr 0.00 in0.0 mm
05:06 AM 71.8°F22.1°C 63.8°F17.7°C 76% Calm Calm -- 29.06 in984.1 mb 0.00 in0.0 mm 0.00 in/hr0.0 mm/hr 0.00 in0.0 mm
05:04 AM 71.9°F22.2°C 63.9°F17.7°C 76% Calm Calm -- 29.06 in984.1 mb 0.00 in0.0 mm 0.00 in/hr0.0 mm/hr 0.00 in0.0 mm
05:02 AM 71.9°F22.2°C 63.9°F17.7°C 76% Calm Calm -- 29.06 in984.1 mb 0.00 in0.0 mm 0.00 in/hr0.0 mm/hr 0.00 in0.0 mm
05:00 AM 72.0°F22.2°C 64.0°F17.8°C 76% Calm Calm -- 29.06 in984.1 mb 0.00 in0.0 mm 0.00 in/hr0.0 mm/hr 0.00 in0.0 mm
04:58 AM 72.0°F22.2°C 64.0°F17.8°C 76% Calm Calm -- 29.06 in984.1 mb 0.00 in0.0 mm 0.00 in/hr0.0 mm/hr 0.00 in0.0 mm
04:56 AM 72.1°F22.3°C 64.1°F17.8°C 76% Calm Calm -- 29.06 in984.1 mb 0.00 in0.0 mm 0.00 in/hr0.0 mm/hr 0.00 in0.0 mm
04:54 AM 72.1°F22.3°C 64.1°F17.8°C 76% Calm Calm -- 29.05 in983.7 mb 0.00 in0.0 mm 0.00 in/hr0.0 mm/hr 0.00 in0.0 mm
04:52 AM 72.1°F22.3°C 64.1°F17.8°C 76% Calm Calm -- 29.05 in983.7 mb 0.00 in0.0 mm 0.00 in/hr0.0 mm/hr 0.00 in0.0 mm
04:50 AM 72.2°F22.3°C 64.2°F17.9°C 76% Calm Calm -- 29.05 in983.7 mb 0.00 in0.0 mm 0.00 in/hr0.0 mm/hr 0.00 in0.0 mm
04:48 AM 72.2°F22.3°C 64.2°F17.9°C 76% Calm Calm -- 29.05 in983.7 mb 0.00 in0.0 mm 0.00 in/hr0.0 mm/hr 0.00 in0.0 mm
04:46 AM 72.2°F22.3°C 64.2°F17.9°C 76% Calm Calm -- 29.05 in983.7 mb 0.00 in0.0 mm 0.00 in/hr0.0 mm/hr 0.00 in0.0 mm
04:44 AM 72.3°F22.4°C 64.3°F17.9°C 76% Calm Calm -- 29.05 in983.7 mb 0.00 in0.0 mm 0.00 in/hr0.0 mm/hr 0.00 in0.0 mm
04:42 AM 72.3°F22.4°C 64.3°F17.9°C 76% Calm Calm -- 29.05 in983.7 mb 0.00 in0.0 mm 0.00 in/hr0.0 mm/hr 0.00 in0.0 mm
04:40 AM 72.3°F22.4°C 64.3°F17.9°C 76% Calm Calm -- 29.05 in983.7 mb 0.00 in0.0 mm 0.00 in/hr0.0 mm/hr 0.00 in0.0 mm
04:38 AM 72.3°F22.4°C 64.3°F17.9°C 76% Calm Calm -- 29.05 in983.7 mb 0.00 in0.0 mm 0.00 in/hr0.0 mm/hr 0.00 in0.0 mm
04:36 AM 72.3°F22.4°C 64.3°F17.9°C 76% Calm Calm -- 29.05 in983.7 mb 0.00 in0.0 mm 0.00 in/hr0.0 mm/hr 0.00 in0.0 mm
04:34 AM 72.4°F22.4°C 64.4°F18.0°C 76% Calm Calm -- 29.05 in983.7 mb 0.00 in0.0 mm 0.00 in/hr0.0 mm/hr 0.00 in0.0 mm
04:32 AM 72.4°F22.4°C 64.4°F18.0°C 76% Calm Calm -- 29.05 in983.7 mb 0.00 in0.0 mm 0.00 in/hr0.0 mm/hr 0.00 in0.0 mm
04:30 AM 72.4°F22.4°C 64.4°F18.0°C 76% Calm Calm 2.0 mph3.2 kmh 29.05 in983.7 mb 0.00 in0.0 mm 0.00 in/hr0.0 mm/hr 0.00 in0.0 mm
04:28 AM 72.4°F22.4°C 64.4°F18.0°C 76% Calm Calm 2.0 mph3.2 kmh 29.05 in983.7 mb 0.00 in0.0 mm 0.00 in/hr0.0 mm/hr 0.00 in0.0 mm
04:26 AM 72.4°F22.4°C 64.4°F18.0°C 76% Calm Calm 2.0 mph3.2 kmh 29.05 in983.7 mb 0.00 in0.0 mm 0.00 in/hr0.0 mm/hr 0.00 in0.0 mm
04:24 AM 72.4°F22.4°C 64.4°F18.0°C 76% Calm Calm 2.0 mph3.2 kmh 29.05 in983.7 mb 0.00 in0.0 mm 0.00 in/hr0.0 mm/hr 0.00 in0.0 mm
04:22 AM 72.4°F22.4°C 64.4°F18.0°C 76% Calm Calm 2.0 mph3.2 kmh 29.05 in983.7 mb 0.00 in0.0 mm 0.00 in/hr0.0 mm/hr 0.00 in0.0 mm
04:20 AM 72.4°F22.4°C 64.4°F18.0°C 76% Calm Calm 2.0 mph3.2 kmh 29.05 in983.7 mb 0.00 in0.0 mm 0.00 in/hr0.0 mm/hr 0.00 in0.0 mm
04:18 AM 72.4°F22.4°C 64.4°F18.0°C 76% Calm Calm 2.0 mph3.2 kmh 29.05 in983.7 mb 0.00 in0.0 mm 0.00 in/hr0.0 mm/hr 0.00 in0.0 mm
04:16 AM 72.3°F22.4°C 64.3°F17.9°C 76% Calm Calm 2.0 mph3.2 kmh 29.05 in983.7 mb 0.00 in0.0 mm 0.00 in/hr0.0 mm/hr 0.00 in0.0 mm
04:14 AM 72.3°F22.4°C 64.3°F17.9°C 76% Calm Calm 2.0 mph3.2 kmh 29.06 in984.1 mb 0.00 in0.0 mm 0.00 in/hr0.0 mm/hr 0.00 in0.0 mm
04:12 AM 72.3°F22.4°C 64.3°F17.9°C 76% Calm Calm 2.0 mph3.2 kmh 29.06 in984.1 mb 0.00 in0.0 mm 0.00 in/hr0.0 mm/hr 0.00 in0.0 mm
04:10 AM 72.3°F22.4°C 64.3°F17.9°C 76% Calm Calm -- 29.06 in984.1 mb 0.00 in0.0 mm 0.00 in/hr0.0 mm/hr 0.00 in0.0 mm
04:08 AM 72.3°F22.4°C 64.3°F17.9°C 76% Calm Calm -- 29.06 in984.1 mb 0.00 in0.0 mm 0.00 in/hr0.0 mm/hr 0.00 in0.0 mm
04:06 AM 72.2°F22.3°C 63.8°F17.7°C 75% Calm Calm -- 29.06 in984.1 mb 0.00 in0.0 mm 0.00 in/hr0.0 mm/hr 0.00 in0.0 mm
04:04 AM 72.2°F22.3°C 63.8°F17.7°C 75% Calm Calm -- 29.06 in984.1 mb 0.00 in0.0 mm 0.00 in/hr0.0 mm/hr 0.00 in0.0 mm
04:02 AM 72.2°F22.3°C 63.8°F17.7°C 75% Calm Calm -- 29.06 in984.1 mb 0.00 in0.0 mm 0.00 in/hr0.0 mm/hr 0.00 in0.0 mm
04:00 AM 72.2°F22.3°C 63.8°F17.7°C 75% Calm Calm 1.0 mph1.6 kmh 29.06 in984.1 mb 0.00 in0.0 mm 0.00 in/hr0.0 mm/hr 0.00 in0.0 mm
03:57 AM 72.2°F22.3°C 64.2°F17.9°C 76% Calm Calm 1.0 mph1.6 kmh 29.06 in984.1 mb 0.00 in0.0 mm 0.00 in/hr0.0 mm/hr 0.00 in0.0 mm
03:56 AM 72.2°F22.3°C 63.8°F17.7°C 75% Calm Calm 1.0 mph1.6 kmh 29.06 in984.1 mb 0.00 in0.0 mm 0.00 in/hr0.0 mm/hr 0.00 in0.0 mm
03:54 AM 72.2°F22.3°C 63.8°F17.7°C 75% Calm Calm 1.0 mph1.6 kmh 29.06 in984.1 mb 0.00 in0.0 mm 0.00 in/hr0.0 mm/hr 0.00 in0.0 mm
03:52 AM 72.1°F22.3°C 63.8°F17.7°C 75% Calm Calm 1.0 mph1.6 kmh 29.06 in984.1 mb 0.00 in0.0 mm 0.00 in/hr0.0 mm/hr 0.00 in0.0 mm
03:50 AM 72.1°F22.3°C 63.8°F17.7°C 75% Calm Calm 1.0 mph1.6 kmh 29.06 in984.1 mb 0.00 in0.0 mm 0.00 in/hr0.0 mm/hr 0.00 in0.0 mm
03:48 AM 72.1°F22.3°C 63.8°F17.7°C 75% Calm Calm 1.0 mph1.6 kmh 29.06 in984.1 mb 0.00 in0.0 mm 0.00 in/hr0.0 mm/hr 0.00 in0.0 mm
03:46 AM 72.1°F22.3°C 63.8°F17.7°C 75% Calm Calm 1.0 mph1.6 kmh 29.06 in984.1 mb 0.00 in0.0 mm 0.00 in/hr0.0 mm/hr 0.00 in0.0 mm
03:44 AM 72.1°F22.3°C 63.8°F17.7°C 75% Calm Calm -- 29.06 in984.1 mb 0.00 in0.0 mm 0.00 in/hr0.0 mm/hr 0.00 in0.0 mm
03:42 AM 72.1°F22.3°C 63.8°F17.7°C 75% Calm Calm -- 29.06 in984.1 mb 0.00 in0.0 mm 0.00 in/hr0.0 mm/hr 0.00 in0.0 mm
03:40 AM 72.2°F22.3°C 63.8°F17.7°C 75% Calm Calm -- 29.06 in984.1 mb 0.00 in0.0 mm 0.00 in/hr0.0 mm/hr 0.00 in0.0 mm
03:38 AM 72.2°F22.3°C 63.8°F17.7°C 75% Calm Calm -- 29.06 in984.1 mb 0.00 in0.0 mm 0.00 in/hr0.0 mm/hr 0.00 in0.0 mm
03:36 AM 72.2°F22.3°C 63.8°F17.7°C 75% Calm Calm -- 29.06 in984.1 mb 0.00 in0.0 mm 0.00 in/hr0.0 mm/hr 0.00 in0.0 mm
03:33 AM 72.2°F22.3°C 63.8°F17.7°C 75% Calm Calm -- 29.06 in984.1 mb 0.00 in0.0 mm 0.00 in/hr0.0 mm/hr 0.00 in0.0 mm
03:32 AM 72.2°F22.3°C 63.5°F17.5°C 74% Calm Calm -- 29.06 in984.1 mb 0.00 in0.0 mm 0.00 in/hr0.0 mm/hr 0.00 in0.0 mm
03:30 AM 72.3°F22.4°C 63.6°F17.6°C 74% Calm Calm -- 29.06 in984.1 mb 0.00 in0.0 mm 0.00 in/hr0.0 mm/hr 0.00 in0.0 mm
03:28 AM 72.3°F22.4°C 63.6°F17.6°C 74% Calm Calm -- 29.07 in984.4 mb 0.00 in0.0 mm 0.00 in/hr0.0 mm/hr 0.00 in0.0 mm
03:26 AM 72.3°F22.4°C 63.6°F17.6°C 74% Calm Calm -- 29.06 in984.1 mb 0.00 in0.0 mm 0.00 in/hr0.0 mm/hr 0.00 in0.0 mm
03:24 AM 72.4°F22.4°C 63.7°F17.6°C 74% Calm Calm -- 29.07 in984.4 mb 0.00 in0.0 mm 0.00 in/hr0.0 mm/hr 0.00 in0.0 mm
03:22 AM 72.4°F22.4°C 63.7°F17.6°C 74% Calm Calm -- 29.07 in984.4 mb 0.00 in0.0 mm 0.00 in/hr0.0 mm/hr 0.00 in0.0 mm
03:20 AM 72.4°F22.4°C 63.7°F17.6°C 74% Calm Calm -- 29.06 in984.1 mb 0.00 in0.0 mm 0.00 in/hr0.0 mm/hr 0.00 in0.0 mm
03:18 AM 72.5°F22.5°C 63.8°F17.7°C 74% Calm Calm -- 29.07 in984.4 mb 0.00 in0.0 mm 0.00 in/hr0.0 mm/hr 0.00 in0.0 mm
03:16 AM 72.5°F22.5°C 63.8°F17.7°C 74% Calm Calm -- 29.07 in984.4 mb 0.00 in0.0 mm 0.00 in/hr0.0 mm/hr 0.00 in0.0 mm
03:14 AM 72.6°F22.6°C 63.9°F17.7°C 74% Calm Calm -- 29.07 in984.4 mb 0.00 in0.0 mm 0.00 in/hr0.0 mm/hr 0.00 in0.0 mm
03:12 AM 72.6°F22.6°C 63.9°F17.7°C 74% Calm Calm -- 29.07 in984.4 mb 0.00 in0.0 mm 0.00 in/hr0.0 mm/hr 0.00 in0.0 mm
03:10 AM 72.7°F22.6°C 63.6°F17.6°C 73% Calm Calm -- 29.07 in984.4 mb 0.00 in0.0 mm 0.00 in/hr0.0 mm/hr 0.00 in0.0 mm
03:08 AM 72.7°F22.6°C 63.6°F17.6°C 73% Calm Calm -- 29.07 in984.4 mb 0.00 in0.0 mm 0.00 in/hr0.0 mm/hr 0.00 in0.0 mm
03:06 AM 72.7°F22.6°C 63.6°F17.6°C 73% Calm Calm -- 29.07 in984.4 mb 0.00 in0.0 mm 0.00 in/hr0.0 mm/hr 0.00 in0.0 mm
03:04 AM 72.8°F22.7°C 63.7°F17.6°C 73% Calm Calm -- 29.07 in984.4 mb 0.00 in0.0 mm 0.00 in/hr0.0 mm/hr 0.00 in0.0 mm
03:01 AM 72.9°F22.7°C 64.1°F17.8°C 74% Calm Calm -- 29.07 in984.4 mb 0.00 in0.0 mm 0.00 in/hr0.0 mm/hr 0.00 in0.0 mm
03:00 AM 72.9°F22.7°C 63.8°F17.7°C 73% Calm Calm -- 29.07 in984.4 mb 0.00 in0.0 mm 0.00 in/hr0.0 mm/hr 0.00 in0.0 mm
02:58 AM 73.0°F22.8°C 63.8°F17.7°C 73% Calm Calm -- 29.07 in984.4 mb 0.00 in0.0 mm 0.00 in/hr0.0 mm/hr 0.00 in0.0 mm
02:56 AM 73.1°F22.8°C 63.9°F17.7°C 73% Calm Calm -- 29.08 in984.8 mb 0.00 in0.0 mm 0.00 in/hr0.0 mm/hr 0.00 in0.0 mm
02:53 AM 73.1°F22.8°C 63.9°F17.7°C 73% Calm Calm -- 29.07 in984.4 mb 0.00 in0.0 mm 0.00 in/hr0.0 mm/hr 0.00 in0.0 mm
02:52 AM 73.2°F22.9°C 64.0°F17.8°C 73% Calm Calm -- 29.07 in984.4 mb 0.00 in0.0 mm 0.00 in/hr0.0 mm/hr 0.00 in0.0 mm
02:50 AM 73.2°F22.9°C 63.6°F17.6°C 72% Calm Calm -- 29.07 in984.4 mb 0.00 in0.0 mm 0.00 in/hr0.0 mm/hr 0.00 in0.0 mm
02:48 AM 73.3°F22.9°C 64.1°F17.8°C 73% Calm Calm -- 29.08 in984.8 mb 0.00 in0.0 mm 0.00 in/hr0.0 mm/hr 0.00 in0.0 mm
02:46 AM 73.3°F22.9°C 63.7°F17.6°C 72% Calm Calm -- 29.08 in984.8 mb 0.00 in0.0 mm 0.00 in/hr0.0 mm/hr 0.00 in0.0 mm
02:44 AM 73.3°F22.9°C 63.7°F17.6°C 72% Calm Calm -- 29.07 in984.4 mb 0.00 in0.0 mm 0.00 in/hr0.0 mm/hr 0.00 in0.0 mm
02:41 AM 73.4°F23.0°C 64.2°F17.9°C 73% Calm Calm -- 29.08 in984.8 mb 0.00 in0.0 mm 0.00 in/hr0.0 mm/hr 0.00 in0.0 mm
02:40 AM 73.4°F23.0°C 63.8°F17.7°C 72% Calm Calm -- 29.08 in984.8 mb 0.00 in0.0 mm 0.00 in/hr0.0 mm/hr 0.00 in0.0 mm
02:38 AM 73.5°F23.1°C 63.9°F17.7°C 72% Calm Calm -- 29.08 in984.8 mb 0.00 in0.0 mm 0.00 in/hr0.0 mm/hr 0.00 in0.0 mm
02:36 AM 73.5°F23.1°C 63.9°F17.7°C 72% Calm Calm -- 29.08 in984.8 mb 0.00 in0.0 mm 0.00 in/hr0.0 mm/hr 0.00 in0.0 mm
02:34 AM 73.5°F23.1°C 63.9°F17.7°C 72% Calm Calm -- 29.08 in984.8 mb 0.00 in0.0 mm 0.00 in/hr0.0 mm/hr 0.00 in0.0 mm
02:32 AM 73.6°F23.1°C 64.0°F17.8°C 72% Calm Calm -- 29.08 in984.8 mb 0.00 in0.0 mm 0.00 in/hr0.0 mm/hr 0.00 in0.0 mm
02:30 AM 73.6°F23.1°C 64.0°F17.8°C 72% Calm Calm -- 29.08 in984.8 mb 0.00 in0.0 mm 0.00 in/hr0.0 mm/hr 0.00 in0.0 mm
02:28 AM 73.7°F23.2°C 64.1°F17.8°C 72% Calm Calm -- 29.08 in984.8 mb 0.00 in0.0 mm 0.00 in/hr0.0 mm/hr 0.00 in0.0 mm
02:26 AM 73.8°F23.2°C 64.2°F17.9°C 72% Calm Calm -- 29.08 in984.8 mb 0.00 in0.0 mm 0.00 in/hr0.0 mm/hr 0.00 in0.0 mm
02:24 AM 73.8°F23.2°C 64.2°F17.9°C 72% Calm Calm -- 29.08 in984.8 mb 0.00 in0.0 mm 0.00 in/hr0.0 mm/hr 0.00 in0.0 mm
02:22 AM 73.9°F23.3°C 64.3°F17.9°C 72% Calm Calm -- 29.08 in984.8 mb 0.00 in0.0 mm 0.00 in/hr0.0 mm/hr 0.00 in0.0 mm
02:20 AM 73.9°F23.3°C 63.9°F17.7°C 71% Calm Calm -- 29.08 in984.8 mb 0.00 in0.0 mm 0.00 in/hr0.0 mm/hr 0.00 in0.0 mm
02:18 AM 73.9°F23.3°C 64.3°F17.9°C 72% Calm Calm -- 29.08 in984.8 mb 0.00 in0.0 mm 0.00 in/hr0.0 mm/hr 0.00 in0.0 mm
02:16 AM 74.0°F23.3°C 64.4°F18.0°C 72% Calm Calm -- 29.08 in984.8 mb 0.00 in0.0 mm 0.00 in/hr0.0 mm/hr 0.00 in0.0 mm
02:14 AM 74.0°F23.3°C 64.0°F17.8°C 71% Calm Calm -- 29.08 in984.8 mb 0.00 in0.0 mm 0.00 in/hr0.0 mm/hr 0.00 in0.0 mm
02:12 AM 74.1°F23.4°C 64.1°F17.8°C 71% Calm Calm -- 29.08 in984.8 mb 0.00 in0.0 mm 0.00 in/hr0.0 mm/hr 0.00 in0.0 mm
02:10 AM 74.1°F23.4°C 64.1°F17.8°C 71% Calm Calm -- 29.08 in984.8 mb 0.00 in0.0 mm 0.00 in/hr0.0 mm/hr 0.00 in0.0 mm
02:08 AM 74.2°F23.4°C 64.2°F17.9°C 71% Calm Calm -- 29.08 in984.8 mb 0.00 in0.0 mm 0.00 in/hr0.0 mm/hr 0.00 in0.0 mm
02:06 AM 74.2°F23.4°C 64.2°F17.9°C 71% Calm Calm -- 29.08 in984.8 mb 0.00 in0.0 mm 0.00 in/hr0.0 mm/hr 0.00 in0.0 mm
02:04 AM 74.2°F23.4°C 64.2°F17.9°C 71% Calm Calm -- 29.08 in984.8 mb 0.00 in0.0 mm 0.00 in/hr0.0 mm/hr 0.00 in0.0 mm
02:02 AM 74.3°F23.5°C 64.3°F17.9°C 71% Calm Calm -- 29.08 in984.8 mb 0.00 in0.0 mm 0.00 in/hr0.0 mm/hr 0.00 in0.0 mm
02:00 AM 74.3°F23.5°C 64.3°F17.9°C 71% Calm Calm -- 29.08 in984.8 mb 0.00 in0.0 mm 0.00 in/hr0.0 mm/hr 0.00 in0.0 mm
01:58 AM 74.4°F23.6°C 64.0°F17.8°C 70% Calm Calm -- 29.08 in984.8 mb 0.00 in0.0 mm 0.00 in/hr0.0 mm/hr 0.00 in0.0 mm
01:56 AM 74.4°F23.6°C 64.0°F17.8°C 70% Calm Calm -- 29.08 in984.8 mb 0.00 in0.0 mm 0.00 in/hr0.0 mm/hr 0.00 in0.0 mm
01:54 AM 74.4°F23.6°C 64.0°F17.8°C 70% Calm Calm -- 29.08 in984.8 mb 0.00 in0.0 mm 0.00 in/hr0.0 mm/hr 0.00 in0.0 mm
01:52 AM 74.5°F23.6°C 64.1°F17.8°C 70% Calm Calm -- 29.08 in984.8 mb 0.00 in0.0 mm 0.00 in/hr0.0 mm/hr 0.00 in0.0 mm
01:50 AM 74.5°F23.6°C 64.1°F17.8°C 70% Calm Calm -- 29.08 in984.8 mb 0.00 in0.0 mm 0.00 in/hr0.0 mm/hr 0.00 in0.0 mm
01:48 AM 74.6°F23.7°C 64.2°F17.9°C 70% Calm Calm -- 29.08 in984.8 mb 0.00 in0.0 mm 0.00 in/hr0.0 mm/hr 0.00 in0.0 mm
01:46 AM 74.6°F23.7°C 64.2°F17.9°C 70% Calm Calm -- 29.07 in984.4 mb 0.00 in0.0 mm 0.00 in/hr0.0 mm/hr 0.00 in0.0 mm
01:44 AM 74.7°F23.7°C 64.3°F17.9°C 70% Calm Calm -- 29.08 in984.8 mb 0.00 in0.0 mm 0.00 in/hr0.0 mm/hr 0.00 in0.0 mm
01:42 AM 74.7°F23.7°C 64.3°F17.9°C 70% Calm Calm -- 29.08 in984.8 mb 0.00 in0.0 mm 0.00 in/hr0.0 mm/hr 0.00 in0.0 mm
01:40 AM 74.7°F23.7°C 64.3°F17.9°C 70% Calm Calm -- 29.08 in984.8 mb 0.00 in0.0 mm 0.00 in/hr0.0 mm/hr 0.00 in0.0 mm
01:38 AM 74.8°F23.8°C 64.4°F18.0°C 70% Calm Calm -- 29.08 in984.8 mb 0.00 in0.0 mm 0.00 in/hr0.0 mm/hr 0.00 in0.0 mm
01:36 AM 74.8°F23.8°C 64.4°F18.0°C 70% Calm Calm -- 29.08 in984.8 mb 0.00 in0.0 mm 0.00 in/hr0.0 mm/hr 0.00 in0.0 mm
01:34 AM 74.9°F23.8°C 64.5°F18.1°C 70% Calm Calm -- 29.08 in984.8 mb 0.00 in0.0 mm 0.00 in/hr0.0 mm/hr 0.00 in0.0 mm
01:32 AM 74.9°F23.8°C 64.5°F18.1°C 70% Calm Calm -- 29.08 in984.8 mb 0.00 in0.0 mm 0.00 in/hr0.0 mm/hr 0.00 in0.0 mm
01:30 AM 74.9°F23.8°C 64.1°F17.8°C 69% Calm Calm -- 29.08 in984.8 mb 0.00 in0.0 mm 0.00 in/hr0.0 mm/hr 0.00 in0.0 mm
01:28 AM 75.0°F23.9°C 64.2°F17.9°C 69% Calm Calm -- 29.08 in984.8 mb 0.00 in0.0 mm 0.00 in/hr0.0 mm/hr 0.00 in0.0 mm
01:26 AM 75.0°F23.9°C 64.2°F17.9°C 69% Calm Calm -- 29.08 in984.8 mb 0.00 in0.0 mm 0.00 in/hr0.0 mm/hr 0.00 in0.0 mm
01:24 AM 75.0°F23.9°C 64.2°F17.9°C 69% Calm Calm -- 29.08 in984.8 mb 0.00 in0.0 mm 0.00 in/hr0.0 mm/hr 0.00 in0.0 mm
01:22 AM 75.1°F23.9°C 64.3°F17.9°C 69% Calm Calm -- 29.08 in984.8 mb 0.00 in0.0 mm 0.00 in/hr0.0 mm/hr 0.00 in0.0 mm
01:20 AM 75.1°F23.9°C 64.3°F17.9°C 69% Calm Calm -- 29.08 in984.8 mb 0.00 in0.0 mm 0.00 in/hr0.0 mm/hr 0.00 in0.0 mm
01:18 AM 75.2°F24.0°C 64.3°F17.9°C 69% Calm Calm -- 29.08 in984.8 mb 0.00 in0.0 mm 0.00 in/hr0.0 mm/hr 0.00 in0.0 mm
01:16 AM 75.2°F24.0°C 64.3°F17.9°C 69% Calm Calm -- 29.08 in984.8 mb 0.00 in0.0 mm 0.00 in/hr0.0 mm/hr 0.00 in0.0 mm
01:14 AM 75.2°F24.0°C 63.9°F17.7°C 68% Calm Calm -- 29.08 in984.8 mb 0.00 in0.0 mm 0.00 in/hr0.0 mm/hr 0.00 in0.0 mm
01:12 AM 75.2°F24.0°C 64.3°F17.9°C 69% Calm Calm -- 29.08 in984.8 mb 0.00 in0.0 mm 0.00 in/hr0.0 mm/hr 0.00 in0.0 mm
01:10 AM 75.3°F24.1°C 64.0°F17.8°C 68% Calm Calm -- 29.08 in984.8 mb 0.00 in0.0 mm 0.00 in/hr0.0 mm/hr 0.00 in0.0 mm
01:08 AM 75.3°F24.1°C 64.4°F18.0°C 69% Calm Calm -- 29.08 in984.8 mb 0.00 in0.0 mm 0.00 in/hr0.0 mm/hr 0.00 in0.0 mm
01:06 AM 75.3°F24.1°C 64.0°F17.8°C 68% Calm Calm -- 29.08 in984.8 mb 0.00 in0.0 mm 0.00 in/hr0.0 mm/hr 0.00 in0.0 mm
01:04 AM 75.4°F24.1°C 64.1°F17.8°C 68% Calm Calm -- 29.08 in984.8 mb 0.00 in0.0 mm 0.00 in/hr0.0 mm/hr 0.00 in0.0 mm
01:02 AM 75.4°F24.1°C 64.1°F17.8°C 68% Calm Calm -- 29.08 in984.8 mb 0.00 in0.0 mm 0.00 in/hr0.0 mm/hr 0.00 in0.0 mm
01:00 AM 75.4°F24.1°C 64.1°F17.8°C 68% Calm Calm -- 29.08 in984.8 mb 0.00 in0.0 mm 0.00 in/hr0.0 mm/hr 0.00 in0.0 mm
12:58 AM 75.4°F24.1°C 64.1°F17.8°C 68% Calm Calm -- 29.09 in985.1 mb 0.00 in0.0 mm 0.00 in/hr0.0 mm/hr 0.00 in0.0 mm
12:56 AM 75.5°F24.2°C 64.2°F17.9°C 68% Calm Calm -- 29.09 in985.1 mb 0.00 in0.0 mm 0.00 in/hr0.0 mm/hr 0.00 in0.0 mm
12:54 AM 75.5°F24.2°C 64.2°F17.9°C 68% Calm Calm -- 29.09 in985.1 mb 0.00 in0.0 mm 0.00 in/hr0.0 mm/hr 0.00 in0.0 mm
12:52 AM 75.5°F24.2°C 64.2°F17.9°C 68% Calm Calm -- 29.09 in985.1 mb 0.00 in0.0 mm 0.00 in/hr0.0 mm/hr 0.00 in0.0 mm
12:50 AM 75.5°F24.2°C 64.2°F17.9°C 68% Calm Calm -- 29.09 in985.1 mb 0.00 in0.0 mm 0.00 in/hr0.0 mm/hr 0.00 in0.0 mm
12:48 AM 75.5°F24.2°C 64.2°F17.9°C 68% Calm Calm -- 29.08 in984.8 mb 0.00 in0.0 mm 0.00 in/hr0.0 mm/hr 0.00 in0.0 mm
12:46 AM 75.6°F24.2°C 64.3°F17.9°C 68% Calm Calm -- 29.08 in984.8 mb 0.00 in0.0 mm 0.00 in/hr0.0 mm/hr 0.00 in0.0 mm
12:44 AM 75.6°F24.2°C 63.9°F17.7°C 67% Calm Calm -- 29.09 in985.1 mb 0.00 in0.0 mm 0.00 in/hr0.0 mm/hr 0.00 in0.0 mm
12:42 AM 75.6°F24.2°C 63.9°F17.7°C 67% Calm Calm -- 29.09 in985.1 mb 0.00 in0.0 mm 0.00 in/hr0.0 mm/hr 0.00 in0.0 mm
12:40 AM 75.6°F24.2°C 63.9°F17.7°C 67% Calm Calm -- 29.09 in985.1 mb 0.00 in0.0 mm 0.00 in/hr0.0 mm/hr 0.00 in0.0 mm
12:38 AM 75.7°F24.3°C 64.0°F17.8°C 67% Calm Calm -- 29.09 in985.1 mb 0.00 in0.0 mm 0.00 in/hr0.0 mm/hr 0.00 in0.0 mm
12:36 AM 75.7°F24.3°C 64.0°F17.8°C 67% Calm Calm -- 29.09 in985.1 mb 0.00 in0.0 mm 0.00 in/hr0.0 mm/hr 0.00 in0.0 mm
12:34 AM 75.7°F24.3°C 64.0°F17.8°C 67% Calm Calm -- 29.09 in985.1 mb 0.00 in0.0 mm 0.00 in/hr0.0 mm/hr 0.00 in0.0 mm
12:32 AM 75.7°F24.3°C 64.0°F17.8°C 67% Calm Calm -- 29.09 in985.1 mb 0.00 in0.0 mm 0.00 in/hr0.0 mm/hr 0.00 in0.0 mm
12:30 AM 75.7°F24.3°C 64.0°F17.8°C 67% Calm Calm -- 29.09 in985.1 mb 0.00 in0.0 mm 0.00 in/hr0.0 mm/hr 0.00 in0.0 mm
12:28 AM 75.7°F24.3°C 64.0°F17.8°C 67% Calm Calm -- 29.09 in985.1 mb 0.00 in0.0 mm 0.00 in/hr0.0 mm/hr 0.00 in0.0 mm
12:26 AM 75.8°F24.3°C 64.1°F17.8°C 67% Calm Calm -- 29.09 in985.1 mb 0.00 in0.0 mm 0.00 in/hr0.0 mm/hr 0.00 in0.0 mm
12:24 AM 75.8°F24.3°C 64.1°F17.8°C 67% Calm Calm -- 29.09 in985.1 mb 0.00 in0.0 mm 0.00 in/hr0.0 mm/hr 0.00 in0.0 mm
12:22 AM 75.9°F24.4°C 64.2°F17.9°C 67% Calm Calm -- 29.09 in985.1 mb 0.00 in0.0 mm 0.00 in/hr0.0 mm/hr 0.00 in0.0 mm
12:20 AM 75.9°F24.4°C 63.7°F17.6°C 66% Calm Calm -- 29.09 in985.1 mb 0.00 in0.0 mm 0.00 in/hr0.0 mm/hr 0.00 in0.0 mm
12:18 AM 75.9°F24.4°C 63.7°F17.6°C 66% Calm Calm -- 29.09 in985.1 mb 0.00 in0.0 mm 0.00 in/hr0.0 mm/hr 0.00 in0.0 mm
12:16 AM 76.0°F24.4°C 63.8°F17.7°C 66% Calm Calm -- 29.09 in985.1 mb 0.00 in0.0 mm 0.00 in/hr0.0 mm/hr 0.00 in0.0 mm
12:14 AM 76.1°F24.5°C 63.9°F17.7°C 66% Calm Calm -- 29.09 in985.1 mb 0.00 in0.0 mm 0.00 in/hr0.0 mm/hr 0.00 in0.0 mm
12:12 AM 76.1°F24.5°C 63.9°F17.7°C 66% Calm Calm -- 29.09 in985.1 mb 0.00 in0.0 mm 0.00 in/hr0.0 mm/hr 0.00 in0.0 mm
12:10 AM 76.2°F24.6°C 64.0°F17.8°C 66% Calm Calm -- 29.09 in985.1 mb 0.00 in0.0 mm 0.00 in/hr0.0 mm/hr 0.00 in0.0 mm
12:08 AM 76.2°F24.6°C 64.0°F17.8°C 66% Calm Calm -- 29.10 in985.4 mb 0.00 in0.0 mm 0.00 in/hr0.0 mm/hr 0.00 in0.0 mm
12:06 AM 76.3°F24.6°C 63.7°F17.6°C 65% Calm Calm -- 29.09 in985.1 mb 0.00 in0.0 mm 0.00 in/hr0.0 mm/hr 0.00 in0.0 mm
12:04 AM 76.4°F24.7°C 63.8°F17.7°C 65% Calm Calm -- 29.09 in985.1 mb 0.00 in0.0 mm 0.00 in/hr0.0 mm/hr 0.00 in0.0 mm
12:02 AM 76.4°F24.7°C 63.8°F17.7°C 65% Calm Calm -- 29.10 in985.4 mb 0.00 in0.0 mm 0.00 in/hr0.0 mm/hr 0.00 in0.0 mm
12:00 AM 76.5°F24.7°C 63.9°F17.7°C 65% Calm Calm -- 29.09 in985.1 mb 0.00 in0.0 mm 0.00 in/hr0.0 mm/hr 0.00 in0.0 mm
WeatherForYou.com, LLC is not responsible for any damages or problems caused by this service. Current weather conditions are obtained from the closest station including government and personal stations which may have varying degrees of accuracy. Weather forecasts are derived from the NOAA NDFD and obtained through HAMweather's Aeris Weather API. Like all things, this site belongs to Jesus Christ... He just trusts me to maintain it. If you have any questions or comments email webmaster@weatherforyou.com

Copyright © 2014, WeatherForYou.com LLC. All rights reserved.